logo
Games tagged Multiple Endings
# Game Release date
Price
Score rank
(Userscore / Metascore)
Owners
Players
Playtime (Median)
Developer(s)
Publisher(s)
1 The Witcher 3: Wild Hunt May 18, 2015 $39.99N/A (N/A/93%)10,000,000 .. 20,000,0004.63%06:32 (03:20)CD PROJEKT REDCD PROJEKT RED
2 Undertale Sep 15, 2015 $9.99N/A (N/A/92%)2,000,000 .. 5,000,0001.68%01:32 (01:32)tobyfoxtobyfox
3 Dragon Age: Origins - Ultimate Edition Oct 26, 2010 $29.99N/A (N/A/91%)1,000,000 .. 2,000,0000%00:00 (00:00)BioWareElectronic Arts
4 Dishonored Oct 8, 2012 $9.99N/A (N/A/91%)1,000,000 .. 2,000,0001.2%09:52 (06:34)Arkane StudiosBethesda Softworks
5 Dragon Age: Origins Nov 6, 2009 $19.99N/A (N/A/91%)500,000 .. 1,000,0000%00:00 (00:00)BioWareElectronic Arts
6 Fallout: A Post Nuclear Role Playing Game Sep 30, 1997 $9.99N/A (N/A/89%)2,000,000 .. 5,000,0000.56%01:24 (00:28)Interplay Inc.Bethesda Softworks
7 Return of the Obra Dinn Oct 18, 2018 $19.99N/A (N/A/89%)200,000 .. 500,0000%00:00 (00:00)Lucas Pope3909
8 The Stanley Parable Oct 17, 2013 $14.99N/A (N/A/88%)2,000,000 .. 5,000,0000%00:00 (00:00)Galactic CafeGalactic Cafe
9 The Witcher 2: Assassins of Kings Enhanced Edition May 17, 2011 $19.99N/A (N/A/88%)2,000,000 .. 5,000,0001.72%01:12 (01:27)CD PROJEKT REDCD PROJEKT RED, 1C-SoftClub
10 Hollow Knight Feb 24, 2017 $14.99N/A (N/A/87%)2,000,000 .. 5,000,0004.32%00:30 (00:39)Team CherryTeam Cherry
11 STEINS;GATE Sep 8, 2016 $29.99N/A (N/A/87%)200,000 .. 500,0000%00:00 (00:00)MAGES. Inc.Spike Chunsoft Co., Ltd.
12 Six Ages: Ride Like the Wind Oct 17, 2019 $19.99N/A (N/A/87%)0 .. 20,000NAN%00:00 (00:00)A SharpKitfox Games
13 Unavowed Aug 8, 2018 $14.99N/A (N/A/87%)100,000 .. 200,000NAN%00:00 (00:00)Wadjet Eye GamesWadjet Eye Games
14 The Witcher: Enhanced Edition Director's Cut Sep 16, 2008 $9.99N/A (N/A/86%)2,000,000 .. 5,000,0000.84%05:15 (03:30)CD PROJEKT REDCD PROJEKT RED, 1C-SoftClub
15 Zero Escape: The Nonary Games Mar 24, 2017 $29.99N/A (N/A/86%)50,000 .. 100,0000%00:00 (00:00)Spike Chunsoft Co., Ltd.Spike Chunsoft Co., Ltd.
16 The Talos Principle Dec 11, 2014 $39.99N/A (N/A/85%)1,000,000 .. 2,000,0001.75%00:07 (00:02)CroteamDevolver Digital, Croteam
17 Papers, Please Aug 8, 2013 $9.99N/A (N/A/85%)2,000,000 .. 5,000,0000.75%00:44 (00:14)Lucas Pope3909
18 STAR WARS Knights of the Old Republic II - The Sith Lords Feb 8, 2005 $9.99N/A (N/A/85%)1,000,000 .. 2,000,0000%00:00 (00:00)Obsidian Entertainment, Aspyr (Mac, Linux, & Windows Update)LucasArts, Disney, Lucasfilm, Aspyr (Mac, Linux)
19 Guacamelee! 2 Aug 21, 2018 $19.99N/A (N/A/84%)100,000 .. 200,0005.71%04:49 (03:07)DrinkBox StudiosDrinkBox Studios
20 80 Days Sep 28, 2015 $12.99N/A (N/A/84%)100,000 .. 200,0000%00:00 (00:00)inkle Ltd, Cape Guy Ltdinkle Ltd
21 Reventure Jun 4, 2019 $3.99N/A (N/A/83%)100,000 .. 200,0000%00:00 (00:00)PixelattoPixelatto
22 CLANNAD Apr 28, 2004 $44.99N/A (N/A/83%)50,000 .. 100,0000%00:00 (00:00)VisualArts/KeySekai Project
23 Paradise Killer Sep 4, 2020 $19.99N/A (N/A/82%)200,000 .. 500,0000%00:00 (00:00)Kaizen Game WorksFellow Traveller
24 Pyre Jul 25, 2017 $19.99N/A (N/A/82%)500,000 .. 1,000,0004.76%02:29 (00:49)Supergiant GamesSupergiant Games
25 Dragon Age: Origins Awakening Mar 16, 2010 $9.99N/A (N/A/82%)100,000 .. 200,0000%00:00 (00:00)BioWareElectronic Arts
26 Yuppie Psycho Apr 25, 2019 $10.82N/A (N/A/81%)100,000 .. 200,0000%00:00 (00:00)Baroque DecayAnother Indie
27 Anno 1800 Apr 2019 N/AN/A (N/A/81%)200,000 .. 500,0000%00:00 (00:00)Blue ByteUbisoft
28 Jade Empire: Special Edition Feb 27, 2007 $14.99N/A (N/A/81%)200,000 .. 500,0000%00:00 (00:00)BioWareBioWare, Electronic Arts
29 Emily is Away Too May 26, 2017 $4.99N/A (N/A/81%)100,000 .. 200,0000%00:00 (00:00)Kyle SeeleyKyle Seeley
30 The Age of Decadence Oct 14, 2015 $3.74N/A (N/A/81%)100,000 .. 200,0000%00:00 (00:00)Iron Tower StudioIron Tower Studio
31 The Hex Oct 16, 2018 $9.99N/A (N/A/81%)20,000 .. 50,0000%00:00 (00:00)Daniel Mullins GamesDaniel Mullins Games
32 OneShot Dec 8, 2016 $5.99N/A (N/A/80%)200,000 .. 500,0000%00:00 (00:00)Future Cat LLCDegica
33 OCTOPATH TRAVELER Jun 7, 2019 $59.99N/A (N/A/80%)200,000 .. 500,0000%00:00 (00:00)Square Enix, ACQUIRE Corp.Square Enix
34 Detroit: Become Human Jun 18, 2020 $39.99N/A (N/A/80%)200,000 .. 500,00033.33%03:40 (04:13)Quantic DreamQuantic Dream
35 Catherine Classic Jan 10, 2019 $19.99N/A (N/A/80%)200,000 .. 500,0003.57%01:04 (00:21)ATLUSSEGA
36 1979 Revolution: Black Friday Apr 4, 2016 $9.99N/A (N/A/80%)20,000 .. 50,0000%00:00 (00:00)iNK Stories, N-Fusion InteractiveiNK Stories
37 Oxenfree Jan 14, 2016 $9.99N/A (N/A/80%)200,000 .. 500,0000%00:00 (00:00)Night School StudioNight School Studio
38 Semblance Jul 24, 2018 $9.99N/A (N/A/79%)0 .. 20,0000%00:00 (00:00)NyamakopGood Shepherd Entertainment
39 Waking Mars Dec 13, 2012 $9.99N/A (N/A/79%)200,000 .. 500,0000%00:00 (00:00)Tiger StyleTiger Style
40 Late Shift Apr 18, 2017 $12.99N/A (N/A/79%)200,000 .. 500,0000%00:00 (00:00)CtrlMovieWales Interactive
41 Zero Escape: Zero Time Dilemma Jun 29, 2016 $19.99N/A (N/A/78%)500,000 .. 1,000,0000%00:00 (00:00)Spike Chunsoft Co., Ltd.Spike Chunsoft Co., Ltd.
42 Dead Rising 2 Sep 27, 2010 $19.99N/A (N/A/78%)500,000 .. 1,000,0000%00:00 (00:00)Capcom VancouverCapcom
43 The Count Lucanor Mar 3, 2016 $1.99N/A (N/A/78%)100,000 .. 200,0000%00:00 (00:00)Baroque DecayAnother Indie
44 DRAW CHILLY Nov 12, 2019 $4.99N/A (N/A/78%)0 .. 20,000NAN%00:00 (00:00)AZAMATIKAAZAMATIKA
45 Expeditions: Conquistador May 30, 2013 $19.99N/A (N/A/77%)100,000 .. 200,0000%00:00 (00:00)Logic ArtistsTHQ Nordic
46 Life is Strange: Before the Storm Aug 31, 2017 $16.99N/A (N/A/77%)1,000,000 .. 2,000,0000%00:00 (00:00)Deck Nine, Feral Interactive (Mac), Feral Interactive (Linux)Square Enix, Feral Interactive (Mac), Feral Interactive (Linux)
47 The Darkness II Feb 9, 2012 $29.99N/A (N/A/77%)200,000 .. 500,0000%00:00 (00:00)Digital Extremes2K
48 Aviary Attorney Dec 21, 2015 $14.99N/A (N/A/77%)100,000 .. 200,0000%00:00 (00:00)Sketchy LogicSketchy Logic
49 Neo Cab Oct 3, 2019 $14.99N/A (N/A/76%)100,000 .. 200,00014.29%00:10 (00:03)Chance AgencyFellow Traveller
50 THE LONGING Mar 5, 2020 $14.99N/A (N/A/76%)100,000 .. 200,0000%00:00 (00:00)Studio SeufzApplication Systems Heidelberg
51 Double Kick Heroes Aug 13, 2020 $19.99N/A (N/A/76%)0 .. 20,0000%00:00 (00:00)Headbang ClubHeadbang Club, Hound Picked Games, WhisperGames, Kakehashi
52 Singularity Jun 30, 2010 $29.99N/A (N/A/76%)200,000 .. 500,0000%00:00 (00:00)Raven SoftwareActivision
53 Beholder 2 Dec 4, 2018 $14.99N/A (N/A/76%)50,000 .. 100,0000%00:00 (00:00)Warm Lamp GamesAlawar Premium
54 Event[0] Sep 14, 2016 $19.99N/A (N/A/75%)50,000 .. 100,0000%00:00 (00:00)Ocelot SocietyOcelot Society
55 Beholder Nov 9, 2016 $9.99N/A (N/A/75%)500,000 .. 1,000,0000%00:00 (00:00)Warm Lamp GamesAlawar Premium
56 Attentat 1942 Oct 31, 2017 $8.99N/A (N/A/75%)0 .. 20,000NAN%00:00 (00:00)Charles GamesCharles Games
57 Heavy Rain Jun 18, 2020 $19.99N/A (N/A/75%)50,000 .. 100,0000%00:00 (00:00)Quantic DreamQuantic Dream
58 Coffee Talk Jan 29, 2020 $10.39N/A (N/A/75%)20,000 .. 50,0000%00:00 (00:00)Toge ProductionsToge Productions
59 Shardlight Mar 8, 2016 $14.99N/A (N/A/75%)50,000 .. 100,0000%00:00 (00:00)Wadjet Eye GamesWadjet Eye Games
60 Armello Sep 1, 2015 $19.99N/A (N/A/75%)500,000 .. 1,000,0001.89%00:06 (00:02)League of GeeksLeague of Geeks
61 Alone With You Feb 9, 2017 $9.99N/A (N/A/74%)0 .. 20,0000%00:00 (00:00)Benjamin Rivers Inc.Benjamin Rivers Inc.
62 Stories: The Path of Destinies Apr 12, 2016 $14.99N/A (N/A/74%)2,000,000 .. 5,000,0000%00:00 (00:00)Spearhead GamesSpearhead Games
63 Dark Nights with Poe and Munro May 19, 2020 $12.99N/A (N/A/74%)20,000 .. 50,0000%00:00 (00:00)D'Avekki Studios LtdD'Avekki Studios Ltd
64 Halcyon 6: Starbase Commander (LIGHTSPEED EDITION) Aug 9, 2017 $14.99N/A (N/A/73%)100,000 .. 200,0000%00:00 (00:00)Massive Damage, Inc.Massive Damage, Inc.
65 Blues and Bullets Jul 23, 2015 $4.99N/A (N/A/73%)50,000 .. 100,0000%00:00 (00:00)A Crowd of MonstersA Crowd of Monsters
66 Purrfect Date - Visual Novel/Dating Simulator Dec 15, 2017 $9.99N/A (N/A/72%)20,000 .. 50,0000%00:00 (00:00)Bae TeamBossa Studios
67 Primordia Dec 5, 2012 $9.99N/A (N/A/72%)100,000 .. 200,0000%00:00 (00:00)Wormwood StudiosWadjet Eye Games
68 Dream Daddy: A Dad Dating Simulator Jul 20, 2017 $14.99N/A (N/A/72%)500,000 .. 1,000,0000%00:00 (00:00)Game GrumpsGame Grumps
69 Dark Messiah of Might & Magic Oct 25, 2006 $9.99N/A (N/A/72%)1,000,000 .. 2,000,0000%00:00 (00:00)Arkane StudiosUbisoft
70 Alpha Protocol Jun 1, 2010 N/AN/A (N/A/72%)200,000 .. 500,0000%00:00 (00:00)Obsidian EntertainmentSEGA
71 Way of the Samurai 4 Jul 23, 2015 $24.99N/A (N/A/72%)100,000 .. 200,0000%00:00 (00:00)ACQUIRE Corp.Ghostlight LTD
72 Not Tonight Aug 17, 2018 $19.99N/A (N/A/71%)50,000 .. 100,0000%00:00 (00:00)PanicBarnNo More Robots
73 Cultist Simulator May 31, 2018 $19.99N/A (N/A/71%)200,000 .. 500,0000%00:00 (00:00)Weather FactoryWeather Factory
74 Through the Darkest of Times Jan 30, 2020 $14.99N/A (N/A/71%)0 .. 20,0000%00:00 (00:00)Paintbucket GamesHandyGames
75 Corpse Party Apr 25, 2016 $14.99N/A (N/A/71%)20,000 .. 50,0000%00:00 (00:00)GrisGrisXSEED Games, Marvelous USA, Inc.
76 Beat Cop Mar 30, 2017 $14.99N/A (N/A/71%)200,000 .. 500,0000%00:00 (00:00)Pixel Crow11 bit studios
77 Legends of Eisenwald Jul 2, 2015 $19.99N/A (N/A/71%)100,000 .. 200,0000%00:00 (00:00)Aterdux EntertainmentAterdux Entertainment
78 Tokyo Dark Sep 7, 2017 $17.99N/A (N/A/70%)20,000 .. 50,0000%00:00 (00:00)CherrymochiSquare Enix
79 The Shrouded Isle Aug 4, 2017 $9.99N/A (N/A/69%)100,000 .. 200,0000%00:00 (00:00)Jongwoo Kim, Erica Lahaie, FX Bilodeau, Tanya ShortKitfox Games
80 Home Jun 1, 2012 $4.99N/A (N/A/69%)200,000 .. 500,0000%00:00 (00:00)Benjamin Rivers Inc.Benjamin Rivers Inc.
81 The Wanderer: Frankenstein’s Creature Oct 30, 2019 $15.99N/A (N/A/69%)0 .. 20,000NAN%00:00 (00:00)La Belle Games, ARTE FranceARTE France
82 Neverending Nightmares Sep 26, 2014 $14.99N/A (N/A/68%)100,000 .. 200,0000%00:00 (00:00)Infinitap GamesInfinitap Games
83 Hatoful Boyfriend Sep 4, 2014 $9.99N/A (N/A/68%)200,000 .. 500,0000%00:00 (00:00)Mediatonic, Hato Moa, The Irregular CorporationDevolver Digital
84 Tesla Effect: A Tex Murphy Adventure May 8, 2014 $19.99N/A (N/A/68%)200,000 .. 500,0000%00:00 (00:00)Big Finish GamesBig Finish Games
85 Long Live The Queen Nov 8, 2013 $9.99N/A (N/A/67%)200,000 .. 500,0000%00:00 (00:00)Hanako GamesHanako Games
86 Genesis Alpha One Deluxe Edition Feb 25, 2020 $29.99N/A (N/A/67%)100,000 .. 200,0004.76%00:17 (00:05)Radiation BlueTeam17 Digital Ltd
87 Ministry of Broadcast Jan 30, 2020 $14.99N/A (N/A/67%)0 .. 20,0000%00:00 (00:00)Ministry of Broadcast StudiosHitcents, PLAYISM
88 The Council Mar 13, 2018 FreeN/A (N/A/67%)100,000 .. 200,0000%00:00 (00:00)Big Bad WolfFocus Home Interactive
89 Hot Tin Roof: The Cat That Wore A Fedora Feb 20, 2015 $14.99N/A (N/A/66%)50,000 .. 100,0000%00:00 (00:00)Glass Bottom GamesGlass Bottom Games
90 The Yawhg May 30, 2013 $9.99N/A (N/A/66%)50,000 .. 100,0000%00:00 (00:00)Damian Sommer, Emily CarrollDamian Sommer
91 The Church in the Darkness Aug 2, 2019 $19.99N/A (N/A/65%)0 .. 20,000NAN%00:00 (00:00)Paranoid ProductionsFellow Traveller
92 YIIK: A Postmodern RPG Jan 17, 2019 $19.99N/A (N/A/64%)20,000 .. 50,0000%00:00 (00:00)Ackk StudiosYsbryd Games
93 Football Drama Sep 18, 2019 $11.99N/A (N/A/63%)0 .. 20,000NAN%00:00 (00:00)Open Lab Games & DemigiantOpen Lab Games
94 March of the Living Apr 20, 2016 $14.99N/A (N/A/63%)50,000 .. 100,0000%00:00 (00:00)Machine 22Creaky Corpse Ltd
95 Has-Been Heroes Mar 27, 2017 $19.99N/A (N/A/63%)20,000 .. 50,0000%00:00 (00:00)FrozenbyteGameTrust Games
96 SINNER: Sacrifice for Redemption Oct 22, 2018 $6.64N/A (N/A/63%)0 .. 20,0000%00:00 (00:00)DARK STARAnother Indie
97 The Flower Collectors Apr 21, 2020 $19.99N/A (N/A/63%)0 .. 20,000NAN%00:00 (00:00)Mi'pu'mi Games GmbHMi'pu'mi Games GmbH
98 Analogue: A Hate Story Apr 27, 2012 $9.99N/A (N/A/62%)100,000 .. 200,0000%00:00 (00:00)Love Conquers All GamesLove Conquers All Games
99 Moon Hunters Mar 10, 2016 $14.99N/A (N/A/62%)200,000 .. 500,0000%00:00 (00:00)Kitfox GamesKitfox Games
100 Terminator: Resistance Nov 14, 2019 $39.99N/A (N/A/60%)200,000 .. 500,0000%00:00 (00:00)TeyonReef Entertainment
101 VoidExpanse Apr 2, 2015 $14.99N/A (N/A/59%)50,000 .. 100,0000%00:00 (00:00)AtomicTorch StudioAtomicTorch Studio
102 Warden: Melody of the Undergrowth Apr 8, 2016 $19.99N/A (N/A/59%)0 .. 20,0000%00:00 (00:00)Cardboard KeepCardboard Keep
103 Game of Thrones Jun 7, 2012 $14.99N/A (N/A/58%)200,000 .. 500,0000%00:00 (00:00)Cyanide StudiosHandyGames
104 The Assembly Jul 19, 2016 $10.49N/A (N/A/55%)0 .. 20,0000%00:00 (00:00)nDreamsnDreams
105 INSOMNIA: The Ark Sep 27, 2018 $29.99N/A (N/A/54%)50,000 .. 100,000NAN%00:00 (00:00)Mono StudioHeroCraft PC
106 Those Who Remain May 28, 2020 $19.99N/A (N/A/48%)100,000 .. 200,000NAN%00:00 (00:00)Camel 101Wired Productions, WhisperGames
107 NightCry Mar 28, 2016 $24.99N/A (N/A/46%)0 .. 20,0000%00:00 (00:00)Nude MakerPLAYISM
108 Hello Neighbor Dec 8, 2017 $29.99N/A (N/A/38%)0 .. 20,0000%00:00 (00:00)Dynamic PixelstinyBuild
109 The Fifth Horseman May 16, 2019 $1.99N/A (N/A)0 .. 20,000NAN%00:00 (00:00)Angelo ParodiAngelo Parodi
110 BIGFOOT Jan 2017 $15.99N/A (N/A)200,000 .. 500,0000%00:00 (00:00)CyberLight Game StudioCyberLight Game Studio
111 The Game of The Playful Jul 16, 2020 FreeN/A (N/A)0 .. 20,000NAN%00:00 (00:00)深蓝制作组深蓝制作组
112 Ivanoile ~ Christalixeur Corruption Jun 6, 2019 N/AN/A (N/A)0 .. 20,000NAN%00:00 (00:00)
113 The Barbarian and the Subterranean Caves Feb 9, 2017 $4.99N/A (N/A)0 .. 20,0000%00:00 (00:00)NLB projectNLB project
114 My UnReal Pet Jul 17, 2020 $8.99N/A (N/A)0 .. 20,000NAN%00:00 (00:00)FlatworldFlatworld
115 As We Know It May 8, 2019 $14.99N/A (N/A)0 .. 20,000NAN%00:00 (00:00)Jaime Scribbles GamesJaime Scribbles Games
116 Trick and Treat - Visual Novel Dec 30, 2016 FreeN/A (N/A)200,000 .. 500,0000%00:00 (00:00)Eternal Night StudiosAlberto Herrera, Ziel Graywords, Stw projects
117 Wolf Territory Jul 14, 2020 $1.99N/A (N/A)0 .. 20,000NAN%00:00 (00:00)Proximity GamesProximity Games
118 Gunmetal Arcadia Feb 7, 2017 $9.99N/A (N/A)0 .. 20,0000%00:00 (00:00)Minor Key GamesMinor Key Games
119 White Wings ホワイトウィングス Jul 17, 2020 $19.99N/A (N/A)0 .. 20,000NAN%00:00 (00:00)Pureworks Japan 株式会社Pureworks Japan 株式会社
120 Divine D.I.V.A. May 6, 2019 N/AN/A (N/A)0 .. 20,000NAN%00:00 (00:00)
121 Natural - Beyond Nature - Dec 12, 2016 $9.99N/A (N/A)0 .. 20,0000%00:00 (00:00)Zeiva IncZeiva Inc
122 卡牌游戏 Jul 14, 2020 $5.99N/A (N/A)0 .. 20,000NAN%00:00 (00:00)橙光游戏橙光游戏
123 Corona Borealis Jun 3, 2019 $6.99N/A (N/A)0 .. 20,000NAN%00:00 (00:00)Winter WolvesWinter Wolves
124 SoulSet Feb 7, 2017 $16.99N/A (N/A)0 .. 20,0000%00:00 (00:00)NoBreadStudioNoBreadStudio
125 迷雾之夏-The Vigilant Villa Jul 17, 2020 $7.99N/A (N/A)50,000 .. 100,000NAN%00:00 (00:00)知行合一游艺春秋
126 Ideology in Friction Jun 13, 2019 $24.99N/A (N/A)20,000 .. 50,0000%00:00 (00:00)ONEONE1Kagura Games
127 The Horrors at Castle Wülhein Jul 13, 2020 $3.99N/A (N/A)0 .. 20,000NAN%00:00 (00:00)Alex RyanAlex Ryan
128 An Adventurer's Tale May 23, 2019 $11.99N/A (N/A)0 .. 20,000NAN%00:00 (00:00)Epic Works, Top Hat Studios IncTop Hat Studios Inc
129 A Long Road Home Jan 31, 2017 $0.99N/A (N/A)20,000 .. 50,0000%00:00 (00:00)One Bit StudioOne Bit Studio
130 World of Contraptions Jul 16, 2020 $7.99N/A (N/A)0 .. 20,0000%00:00 (00:00)JCP Games StudioJCP Games Studio
131 Yumeutsutsu Re:Master Jun 12, 2019 $51.99N/A (N/A)0 .. 20,000NAN%00:00 (00:00)KOGADO STUDIODegica
132 ChronoClock Feb 28, 2017 $29.99N/A (N/A)0 .. 20,0000%00:00 (00:00)Purple SoftwareSekai Project
133 Escape Room VR: Inner Voices Jul 10, 2020 $19.99N/A (N/A)0 .. 20,000NAN%00:00 (00:00)PunkPirates, Don't Bite DevsPunkPirates
134 Fortress of Hell May 22, 2019 $1.39N/A (N/A)0 .. 20,000NAN%00:00 (00:00)Aldorlea GamesAldorlea Games
135 Ninja Stealth 2 Jan 30, 2017 $0.49N/A (N/A)50,000 .. 100,0000%00:00 (00:00)SC JogosSC Jogos
136 DE:VOID Jul 16, 2020 $6.99N/A (N/A)0 .. 20,000NAN%00:00 (00:00)EggionEggion
137 Call of Fries Jun 10, 2019 $3.99N/A (N/A)0 .. 20,000NAN%00:00 (00:00)Anatoliy LoginovskikhAnatoliy Loginovskikh
138 ARISEN: Prologue Jul 18, 2020 FreeN/A (N/A)0 .. 20,000NAN%00:00 (00:00)MaratusMaratus
139 Alternate DiMansion Diary May 23, 2019 $9.99N/A (N/A)0 .. 20,000NAN%00:00 (00:00)Sprite HillsKagura Games
140 Swordlord Jan 23, 2017 $0.99N/A (N/A)0 .. 20,000NAN%00:00 (00:00)Justin VargheseJustin Varghese
141 romantic player Jul 16, 2020 $2.99N/A (N/A)0 .. 20,000NAN%00:00 (00:00)Old High StudioOld High Studio
142 Princess Maker Refine Feb 17, 2017 $4.99N/A (N/A)20,000 .. 50,000NAN%00:00 (00:00)CFK Co., Ltd.CFK Co., Ltd.
143 Ashina: The Red Witch: Prologue Jul 17, 2020 FreeN/A (N/A)20,000 .. 50,000NAN%00:00 (00:00)Stranga GamesGrabTheGames
144 Project ONe プロジェクト・ワン ~ハロルドはつらいよ~ May 22, 2019 $1.99N/A (N/A)0 .. 20,000NAN%00:00 (00:00)Hellshake YanoHellshake Yano.
145 Da Capo 3 R Jan 20, 2017 $39.99N/A (N/A)0 .. 20,000NAN%00:00 (00:00)CircusMangaGamer
146 Nijikoi no Houkakou Jul 16, 2020 $18.99N/A (N/A)0 .. 20,000NAN%00:00 (00:00)TMASTMAS
147 New England Detective: Breakfast in Boston Jun 7, 2019 $4.99N/A (N/A)0 .. 20,000NAN%00:00 (00:00)Little Black Book EntertainmentLittle Black Book Entertainment
148 Star Merc Feb 10, 2017 $0.79N/A (N/A)20,000 .. 50,0000%00:00 (00:00)D247 GamesNew Worlds Games
149 Dooria Jul 17, 2020 $7.99N/A (N/A)0 .. 20,000NAN%00:00 (00:00)Paper AtomPaper Atom
150 Otaku's Adventure May 20, 2019 $6.99N/A (N/A)200,000 .. 500,0000%00:00 (00:00)Spacelight StudioSpacelight Studio
151 Never Forget Me Jan 10, 2017 $14.99N/A (N/A)0 .. 20,000NAN%00:00 (00:00)Winter WolvesWinter Wolves
152 We should talk. Jul 16, 2020 $6.99N/A (N/A)0 .. 20,000NAN%00:00 (00:00)Insatiable Cycle LLCWhitethorn Digital
153 Ordeal of Princess Eris Jun 6, 2019 $14.99N/A (N/A)0 .. 20,000NAN%00:00 (00:00)AsakiyumemishiKagura Games
154 Death Come True Jul 17, 2020 $15.99N/A (N/A)0 .. 20,000100%00:24 (00:24)IzanagiGames, Too Kyo Games, ESQUADRA,inc.IzanagiGames
155 Cartomante – Fortune Teller Sep 1, 2020 $2.99N/A (N/A)20,000 .. 50,000NAN%00:00 (00:00)Garoa StudiosGaroa Studios
156 LEGRAND LEGACY: Tale of the Fatebounds Jan 24, 2018 $1.99N/A (N/A)20,000 .. 50,0000%00:00 (00:00)SEMISOFTAnother Indie, Mayflower Entertainment [KR]
157 The Grand Lord Sep 3, 2020 $3.99N/A (N/A)20,000 .. 50,000NAN%00:00 (00:00)Andrew Tebbe, Isaac KershnerAndrew Tebbe
158 Nirvana Pilot Yume Dec 13, 2017 $2.49N/A (N/A)0 .. 20,000NAN%00:00 (00:00)Dev9kDev9k
159 Deadly Forest Aug 29, 2020 FreeN/A (N/A)20,000 .. 50,000NAN%00:00 (00:00)Free Initiative GamesFree Initiative Games
160 KAKUSANKIBOU / 扩散希望 Jan 24, 2018 $2.99N/A (N/A)0 .. 20,000NAN%00:00 (00:00)あみそ組Pujia8 Studio, Gamera Game
161 Outer Frontier Sep 3, 2020 $13.99N/A (N/A)0 .. 20,000NAN%00:00 (00:00)Roley GamesRoley Games
162 Vacation: dayOFF Dec 12, 2017 FreeN/A (N/A)0 .. 20,000NAN%00:00 (00:00)turninGear-In.
163 サチ江 -死道-/Sachie -Death Road- Aug 29, 2020 $4.99N/A (N/A)0 .. 20,000NAN%00:00 (00:00)FooNnProjectFooNnProject
164 Return of Red Riding Hood Enhanced Edition Jan 19, 2018 $1.34N/A (N/A)0 .. 20,0000%00:00 (00:00)NLB projectNLB project
165 2ECONDS TO STΔRLIVHT: Forever My Diamond Sep 2, 2020 FreeN/A (N/A)0 .. 20,000NAN%00:00 (00:00)SKY HOUR WORKS, Anarch EntertainmentAnarch Entertainment
166 Speechless Aug 29, 2020 $2.99N/A (N/A)0 .. 20,000NAN%00:00 (00:00)Dragons Eye Studio, BlazingfallFull Dream Solutions
167 The Crooked Man Jan 16, 2018 $1.79N/A (N/A)20,000 .. 50,000NAN%00:00 (00:00)Uri GamesPLAYISM
168 High Entropy: Challenges Sep 1, 2020 FreeN/A (N/A)20,000 .. 50,000NAN%00:00 (00:00)Álvaro García (binarynonsense)Álvaro García (binarynonsense)
169 Choices: The Game Feb 1, 2018 $1.99N/A (N/A)0 .. 20,000NAN%00:00 (00:00)FreestewdiosFreestewdios
170 Seek Girl:Fog Ⅰ Aug 28, 2020 $3.99N/A (N/A)50,000 .. 100,0000%00:00 (00:00)DSGameDSGame
171 Choose Wisely Jan 12, 2018 $3.99N/A (N/A)0 .. 20,0000%00:00 (00:00)ID CardID Card
172 StopGate Sep 1, 2020 FreeN/A (N/A)20,000 .. 50,000NAN%00:00 (00:00)Anton PauliAnton Pauli
173 Scavenger SV-4 Jan 31, 2018 $14.99N/A (N/A)0 .. 20,000NAN%00:00 (00:00)Deric RuhlHoroArch
174 Escape Room - Der kranke Kollege Sep 5, 2020 FreeN/A (N/A)0 .. 20,000NAN%00:00 (00:00)Bitbeast GamesBitbeast Games
175 Artifact Adventure Gaiden Jan 9, 2018 $1.99N/A (N/A)0 .. 20,000NAN%00:00 (00:00)bluffmanPLAYISM
176 aMAZEd Sep 1, 2020 $11.99N/A (N/A)0 .. 20,000NAN%00:00 (00:00)Ondřej HladíkVenushja Games
177 PAWARUMI Jan 30, 2018 $14.99N/A (N/A)20,000 .. 50,000NAN%00:00 (00:00)Manufacture 43Manufacture 43
178 The trial of witch Jan 6, 2018 $3.99N/A (N/A)0 .. 20,000NAN%00:00 (00:00)YurifYurif
179 Antadin DX Sep 1, 2020 FreeN/A (N/A)20,000 .. 50,000NAN%00:00 (00:00)Red SkaldRed Skald
180 The Quiet Sleep Jan 30, 2018 $4.99N/A (N/A)0 .. 20,000NAN%00:00 (00:00)Why Not GamesWhy Not Games
181 Bleeding Moons Sep 3, 2020 $9.99N/A (N/A)0 .. 20,000NAN%00:00 (00:00)IAN GamesPhoenix Online Publishing
182 Corona Sector Sep 1, 2020 $1.99N/A (N/A)0 .. 20,000NAN%00:00 (00:00)iBlackpeniBlackpen
183 The Sand Man Jan 29, 2018 $1.79N/A (N/A)0 .. 20,000NAN%00:00 (00:00)Uri GamesPLAYISM
184 그 어느 여름날의 이야기 Sep 3, 2020 $1.99N/A (N/A)0 .. 20,000NAN%00:00 (00:00)유진게임즈유진게임즈
185 Omega Quintet Dec 15, 2017 $29.99N/A (N/A)0 .. 20,0000%00:00 (00:00)Idea FactoryGhostlight LTD
186 Love's Sweet Garnish Sep 7, 2018 $12.99N/A (N/A)0 .. 20,0000%00:00 (00:00)Canvas+GardenSekai Project
187 Agarest: Generations of War 2 Feb 19, 2015 $19.99N/A (N/A)20,000 .. 50,0000%00:00 (00:00)Idea FactoryGhostlight LTD
188 Group Project Simulator Apr 9, 2020 FreeN/A (N/A)0 .. 20,000NAN%00:00 (00:00)Meowstro StudiosMariah Armstrong
189 Iveri: The 1.000 Story Mar 14, 2020 N/AN/A (N/A)0 .. 20,000NAN%00:00 (00:00)Blender Games
190 NOISZ Aug 31, 2018 $19.99N/A (N/A)0 .. 20,000NAN%00:00 (00:00)Anarch EntertainmentAnarch Entertainment
191 Sword Daughter Feb 13, 2015 $4.99N/A (N/A)20,000 .. 50,0000%00:00 (00:00)HanabiraHanako Games
192 Over the Alps Mar 31, 2020 $12.99N/A (N/A)0 .. 20,0000%00:00 (00:00)Stave StudiosStave Studios
193 Gamer Shop Simulator Mar 13, 2020 $8.99N/A (N/A)0 .. 20,000NAN%00:00 (00:00)DiamosDevDiamosDev
194 Rigid Force Alpha Aug 31, 2018 $19.99N/A (N/A)0 .. 20,000NAN%00:00 (00:00)com8com1 Softwarecom8com1 Software
195 Life is Strange - Episode 1 Jan 29, 2015 FreeN/A (N/A)5,000,000 .. 10,000,0000.25%00:23 (00:07)DONTNOD Entertainment, Feral Interactive (Mac), Feral Interactive (Linux)Square Enix, Feral interactive (Mac), Feral Interactive (Linux)
196 Planet Stronghold 2 Mar 31, 2020 $24.99N/A (N/A)20,000 .. 50,000NAN%00:00 (00:00)Winter WolvesWinter Wolves
197 NEKOKORO Aug 16, 2018 $14.99N/A (N/A)0 .. 20,000NAN%00:00 (00:00)Mikołaj SpychałMikołaj Spychał
198 Depression Quest Aug 11, 2014 N/AN/A (N/A)200,000 .. 500,0000%00:00 (00:00)The Quinnspiracy, Patrick Lindsey, Isaac SchanklerThe Quinnspiracy
199 Relentless Mar 13, 2020 $3.99N/A (N/A)0 .. 20,000NAN%00:00 (00:00)Breakpoint GamesBreakpoint Games
200 Seul (Alone): The entrée Aug 30, 2018 $2.99N/A (N/A)0 .. 20,000NAN%00:00 (00:00)Paranormal GamesParanormal Games
201 TorqueL Jan 22, 2015 $1.99N/A (N/A)0 .. 20,000NAN%00:00 (00:00)Nanmo (Takayuki Yanagihara) @ FullPowerSideAttack.com, sanodg (Nobuyoshi Sano), FullPowerSideAttack.comPLAYISM
202 Fates of Ort Mar 31, 2020 $14.99N/A (N/A)0 .. 20,000NAN%00:00 (00:00)8BitSkull8BitSkull
203 SpaceTone Sep 24, 2018 $12.99N/A (N/A)0 .. 20,000NAN%00:00 (00:00)SpaceSoySauceStudioSpaceSoySauceStudio
204 Dark Scavenger May 16, 2014 $4.99N/A (N/A)50,000 .. 100,0000%00:00 (00:00)Psydra Games LLCPsydra Games LLC
205 The Horrorscope Mar 9, 2020 $1.99N/A (N/A)0 .. 20,000NAN%00:00 (00:00)Randumb StudiosRandumb Studios
206 one night, hot springs Aug 30, 2018 FreeN/A (N/A)100,000 .. 200,000NAN%00:00 (00:00)npckcnpckc
207 Help Me Now Mar 27, 2020 $3.99N/A (N/A)0 .. 20,000NAN%00:00 (00:00)Lucas Lopes BaroniLight Station Developer
208 Seers Isle Sep 18, 2018 $12.99N/A (N/A)0 .. 20,000NAN%00:00 (00:00)Nova-boxNova-box
209 Littlewitch Romanesque: Editio Regia Apr 3, 2015 $14.99N/A (N/A)0 .. 20,0000%00:00 (00:00)LittlewitchJAST USA
210 Bigwig Flint Mar 7, 2020 $9.99N/A (N/A)0 .. 20,000NAN%00:00 (00:00)Kanselsprot EntertainmentKanselsprot Entertainment
211 Lake of Voices Aug 28, 2018 FreeN/A (N/A)50,000 .. 100,000NAN%00:00 (00:00)GB Patch GamesGB Patch Games
212 BasketBelle Dec 9, 2014 $4.99N/A (N/A)0 .. 20,0000%00:00 (00:00)Studio BeanStudio Bean
213 Caffeine: Victoria's Legacy Mar 20, 2020 $15.99N/A (N/A)0 .. 20,000NAN%00:00 (00:00)Kikai DigitalKikai Digital
214 Shining Song Starnova Sep 13, 2018 $29.99N/A (N/A)0 .. 20,0000%00:00 (00:00)Love in SpaceSekai Project
215 Peekaboo Collection - 3 Tales of Horror Apr 14, 2020 $2.99N/A (N/A)0 .. 20,000NAN%00:00 (00:00)Vidas SalavejusVidas Salavejus
216 ISLAND Aug 23, 2018 $39.99N/A (N/A)0 .. 20,000NAN%00:00 (00:00)FrontwingFrontwing USA
217 Princess Remedy in a World of Hurt Dec 1, 2014 FreeN/A (N/A)200,000 .. 500,0000%00:00 (00:00)Ludosity, Remar GamesLudosity
218 Princesses Never Lose! Mar 19, 2020 $19.99N/A (N/A)0 .. 20,000NAN%00:00 (00:00)AVANTGARDEKagura Games
219 Just One Line Sep 12, 2018 $9.99N/A (N/A)0 .. 20,0000%00:00 (00:00)JOL StudiosJOL Studios
220 Please, Don’t Touch Anything Mar 26, 2015 $2.44N/A (N/A)200,000 .. 500,0000%00:00 (00:00)Four QuartersForward Game Studios
221 Dark Hero Party Apr 9, 2020 $14.99N/A (N/A)0 .. 20,000NAN%00:00 (00:00)U-ROOMKagura Games
222 Hack the Core Aug 23, 2018 N/AN/A (N/A)0 .. 20,000NAN%00:00 (00:00)
223 Everlasting Summer Nov 19, 2014 FreeN/A (N/A)1,000,000 .. 2,000,0000%00:00 (00:00)Soviet GamesSoviet Games
224 Amairo Chocolate Mar 19, 2020 $24.99N/A (N/A)0 .. 20,000NAN%00:00 (00:00)Cabbage SoftSekai Project
225 Entre-Deux: Cursed Sep 12, 2018 N/AN/A (N/A)0 .. 20,000NAN%00:00 (00:00)
226 Blind Spot Apr 9, 2020 $12.99N/A (N/A)0 .. 20,000NAN%00:00 (00:00)Unlimited Fly GamesUnlimited Fly Games
227 Crystalline Aug 22, 2018 $19.99N/A (N/A)20,000 .. 50,0000%00:00 (00:00)PixelFade IncPixelFade Inc
228 Millennium 5 - The Battle of the Millennium Nov 7, 2014 $9.99N/A (N/A)20,000 .. 50,0000%00:00 (00:00)Aldorlea GamesAldorlea Games
229 Tales in the TAXI Mar 14, 2020 $14.99N/A (N/A)0 .. 20,000NAN%00:00 (00:00)まんぷくえんたていんめんとまんぷくえんたていんめんと
230 Swallow The Blue Jul 7, 2020 $5.99N/A (N/A)20,000 .. 50,000NAN%00:00 (00:00)Euphoric BrothersEuphoric Brothers
231 Cliché - Critical Change Mar 28, 2019 $12.59N/A (N/A)0 .. 20,000NAN%00:00 (00:00)Zeiva IncZeiva Inc
232 Sixtieth Kilometer Aug 25, 2016 $0.99N/A (N/A)200,000 .. 500,0000%00:00 (00:00)TalentplaceKishMish Games
233 The Last Sky Jun 26, 2020 $6.99N/A (N/A)0 .. 20,000NAN%00:00 (00:00)Little Guy GamesLittle Guy Games
234 Exogenesis ~Perils of Rebirth~ Apr 19, 2019 $29.99N/A (N/A)0 .. 20,000NAN%00:00 (00:00)KwanSekai Project
235 D: The Game Oct 27, 2016 $5.99N/A (N/A)20,000 .. 50,0000%00:00 (00:00)WARPNightdive Studios, Throwback Entertainment
236 Stellaren II Jul 5, 2020 $3.99N/A (N/A)0 .. 20,000NAN%00:00 (00:00)nineduxninedux
237 シルヴァリオ トリニティ-Beyond the Horizon- Mar 28, 2019 $64.99N/A (N/A)0 .. 20,000NAN%00:00 (00:00)lightARES Inc.
238 Mugen Souls Z Aug 25, 2016 $19.99N/A (N/A)0 .. 20,0000%00:00 (00:00)Idea FactoryGhostlight LTD
239 Space Court Jun 25, 2020 $4.99N/A (N/A)20,000 .. 50,000NAN%00:00 (00:00)Uphill PromiseUphill Promise
240 Trinoline All Ages Version Apr 18, 2019 $34.99N/A (N/A)0 .. 20,000NAN%00:00 (00:00)minoriMangaGamer
241 Killing Room Oct 20, 2016 $6.99N/A (N/A)100,000 .. 200,0000%00:00 (00:00)Alda GamesAlda Games
242 The Light at the End of the Ocean Jul 5, 2020 $7.99N/A (N/A)0 .. 20,000NAN%00:00 (00:00)Jane TitorJane Titor
243 Kare wa Kanojo Mar 27, 2019 FreeN/A (N/A)0 .. 20,000NAN%00:00 (00:00)JMF GamesJMF Games
244 Cat President ~A More Purrfect Union~ Aug 23, 2016 $8.99N/A (N/A)0 .. 20,000NAN%00:00 (00:00)Oh, a Rock! StudiosOh, a Rock! Studios
245 Shikari Rising Jun 25, 2020 $6.99N/A (N/A)0 .. 20,000NAN%00:00 (00:00)BlosSum GamesBlosSum Games
246 Nurse Love Syndrome Apr 18, 2019 $23.99N/A (N/A)0 .. 20,000NAN%00:00 (00:00)KOGADO STUDIODegica
247 Along the Edge Oct 12, 2016 $12.99N/A (N/A)0 .. 20,000NAN%00:00 (00:00)Nova-boxNova-box
248 牝静的开端 Jul 3, 2020 $0.99N/A (N/A)0 .. 20,000NAN%00:00 (00:00)远平远平
249 Planet Nomads May 3, 2019 $19.99N/A (N/A)50,000 .. 100,0000%00:00 (00:00)CraneballsCraneballs
250 ACE Academy Aug 22, 2016 $19.99N/A (N/A)50,000 .. 100,0000%00:00 (00:00)PixelFade IncPixelFade Inc
251 Galmon Folklore ~Monster Girl Galore!~ Jun 25, 2020 $16.99N/A (N/A)0 .. 20,000NAN%00:00 (00:00)ミラージュブリンガーミラージュブリンガー
252 Ritual of the Moon Apr 18, 2019 $16.99N/A (N/A)0 .. 20,000NAN%00:00 (00:00)Kara StoneKara Stone
253 Major\Minor - Complete Edition Oct 11, 2016 $9.99N/A (N/A)20,000 .. 50,0000%00:00 (00:00)KlaceTall Tail Studios
254 Café Rouge Jul 1, 2020 $19.99N/A (N/A)0 .. 20,000NAN%00:00 (00:00)Sonya FungCloudNovel LLC
255 Balanced Politics Simulator May 1, 2019 $9.99N/A (N/A)0 .. 20,000NAN%00:00 (00:00)Unphysical Machinery, Demir LeylekUnphysical Machinery
256 Please, Don't Touch Anything 3D Dec 7, 2016 $9.99N/A (N/A)20,000 .. 50,0000%00:00 (00:00)Escalation Studios, Four QuartersForward Game Studios
257 The not so silent assassin Jun 25, 2020 $2.5N/A (N/A)0 .. 20,000NAN%00:00 (00:00)G CatzG Catz
258 Save Koch Apr 18, 2019 $11.99N/A (N/A)0 .. 20,000NAN%00:00 (00:00)Wooden MonkeysBigGame
259 Princess Maker 2 Refine Sep 28, 2016 $9.99N/A (N/A)50,000 .. 100,0000%00:00 (00:00)CFK Co., Ltd.CFK Co., Ltd.
260 I'm a love interest in my childhood friend's reverse harem!!! Jul 1, 2020 $9.99N/A (N/A)0 .. 20,000NAN%00:00 (00:00)Red ChanWitPOP
261 Muppy The Bunny : The Danger of Wishes Apr 30, 2019 N/AN/A (N/A)0 .. 20,000NAN%00:00 (00:00)Skyler Hanners, Laurie HannersLaurie Hanners
262 Shuffle! Nov 22, 2016 $19.99N/A (N/A)0 .. 20,0000%00:00 (00:00)NavelYumeHaven
263 他人世界末 On-looker Jul 10, 2020 $8.99N/A (N/A)20,000 .. 50,000NAN%00:00 (00:00)8A studio昆布科技
264 Protocol VR Apr 16, 2019 $19.99N/A (N/A)0 .. 20,000NAN%00:00 (00:00)Fair Games StudioFair Games Studio
265 Mad Father Sep 22, 2016 $2.49N/A (N/A)50,000 .. 100,0000%00:00 (00:00)senPLAYISM
266 Moirs Jun 30, 2020 $4.99N/A (N/A)0 .. 20,000NAN%00:00 (00:00)XVVX STUDIOXVVX STUDIO
267 Alicemare Nov 21, 2016 $1.19N/A (N/A)50,000 .. 100,0000%00:00 (00:00)△○□× (Miwashiba)PLAYISM
268 Fires At Midnight Jul 9, 2020 $11.99N/A (N/A)0 .. 20,000NAN%00:00 (00:00)Persona Theory GamesPersona Theory Games
269 Hotel Tutwin Apr 15, 2019 FreeN/A (N/A)0 .. 20,000NAN%00:00 (00:00)Roxiano CreationsRoxiano Creations
270 Brain Sanguo Jun 30, 2020 $0.99N/A (N/A)0 .. 20,000NAN%00:00 (00:00)Brian Master (脑补大师)Brian Master (脑补大师)
271 Room of Pandora Apr 24, 2019 $9.99N/A (N/A)0 .. 20,000NAN%00:00 (00:00)SHEN JIAWEI, ZHANG FANSHEN JIAWEI, ZHANG FAN
272 The Peresmeshnik Jul 7, 2020 FreeN/A (N/A)0 .. 20,000NAN%00:00 (00:00)Sean ArnoldSean Arnold
273 The Night Fisherman Jun 29, 2020 FreeN/A (N/A)0 .. 20,000NAN%00:00 (00:00)De Fault, Chard, Richard CampbellFar Few Giants
274 Talk to Strangers Apr 19, 2019 $3.99N/A (N/A)0 .. 20,000NAN%00:00 (00:00)Post Mortem PixelsPost Mortem Pixels
275 One Night Stand Nov 7, 2016 $2.99N/A (N/A)20,000 .. 50,0000%00:00 (00:00)KinmokuKinmoku
276 The Call Centre Aug 22, 2020 $4.99N/A (N/A)0 .. 20,000NAN%00:00 (00:00)Junaid JavedJunaid Javed
277 Lilitales Oct 10, 2019 $19.99N/A (N/A)0 .. 20,0000%00:00 (00:00)TUNNEL No.73Kagura Games
278 Little Busters! English Edition Nov 1, 2017 $34.99N/A (N/A)0 .. 20,000NAN%00:00 (00:00)VisualArts/KeyVisualArts
279 Eye of the Temple: First Steps Aug 27, 2020 FreeN/A (N/A)20,000 .. 50,000NAN%00:00 (00:00)Rune Skovbo JohansenRune Skovbo Johansen
280 CHERNOBYL: The Untold Story Sep 24, 2019 $2.99N/A (N/A)20,000 .. 50,000NAN%00:00 (00:00)MehsoftMehsoft
281 7 days with Death Oct 13, 2017 $9.99N/A (N/A)0 .. 20,000NAN%00:00 (00:00)Narrator, StoriaNarrator
282 Ethereal Enigma Aug 22, 2020 $19.99N/A (N/A)0 .. 20,000NAN%00:00 (00:00)PixelFade IncPixelFade Inc
283 Amatarasu Riddle Star Oct 10, 2019 $39.99N/A (N/A)0 .. 20,000NAN%00:00 (00:00)softhouse-sealMangaGamer
284 Best Friend Forever Aug 27, 2020 $19.99N/A (N/A)0 .. 20,0000%00:00 (00:00)StarcoltAlliance
285 Snow Clearing Driving Simulator Sep 23, 2019 $0.49N/A (N/A)0 .. 20,000NAN%00:00 (00:00)A NostruA Nostru
286 Coming Out on Top Oct 12, 2017 $9.89N/A (N/A)20,000 .. 50,0000%00:00 (00:00)ObscurasoftObscurasoft
287 梦乡 The Dreamcatcher Aug 21, 2020 $16.99N/A (N/A)0 .. 20,000NAN%00:00 (00:00)Huanlin GamesHuanlin Games
288 Welcome To... Chichester OVN 2 : Master Tormentor Grendel Jinx !? Oct 9, 2019 FreeN/A (N/A)0 .. 20,000NAN%00:00 (00:00)Triority Interactive NovelsTriority Interactive Novels
289 VOID Oct 31, 2017 $10.99N/A (N/A)0 .. 20,000NAN%00:00 (00:00)Vifth FloorSekai Project
290 Dust to Dusk Aug 26, 2020 $0.99N/A (N/A)0 .. 20,000NAN%00:00 (00:00)C3 GamesC3 Games
291 Pinewood Island Oct 10, 2017 $9.99N/A (N/A)0 .. 20,000NAN%00:00 (00:00)Jaime Scribbles GamesJaime Scribbles Games
292 Hero's Story Oct 21, 2019 $5.99N/A (N/A)0 .. 20,000NAN%00:00 (00:00)SilentplaygamesSilentplaygames
293 Floating life in Other-world Aug 21, 2020 $2.99N/A (N/A)0 .. 20,000NAN%00:00 (00:00)文定工作室, 润禾文定, 小创创克游戏联盟
294 Trapped on Monster Island Oct 3, 2019 $9.99N/A (N/A)0 .. 20,000NAN%00:00 (00:00)Lovely Pretty Ultra Loving YouKagura Games
295 Lost Dimension Oct 30, 2017 $24.99N/A (N/A)20,000 .. 50,0000%00:00 (00:00)FURYU CorporationGhostlight LTD
296 Disease -Hidden Object- Aug 26, 2020 $7.99N/A (N/A)0 .. 20,000NAN%00:00 (00:00)OperaHouse CorporationD3 PUBLISHER
297 Eldervale Oct 20, 2019 $14.99N/A (N/A)0 .. 20,000NAN%00:00 (00:00)SolkitteSolkitte
298 Super Turbo Demon Busters! Dec 8, 2017 $11.99N/A (N/A)0 .. 20,0000%00:00 (00:00)HeroLabsHeroLabs
299 Commissar Catlov Aug 21, 2020 $1.99N/A (N/A)0 .. 20,000NAN%00:00 (00:00)FürstFürst, The Idea Software
300 Don't Make Love Oct 26, 2017 $4.99N/A (N/A)0 .. 20,000NAN%00:00 (00:00)MaggeseMaggese
301 Rapture Aug 25, 2020 $10.99N/A (N/A)0 .. 20,000NAN%00:00 (00:00)Platinum Star GamesPlatinum Star Games
302 Monarch of Greed - Act 1 Nov 29, 2017 $0.99N/A (N/A)0 .. 20,0000%00:00 (00:00)Lled GamesLled Games
303 En-Train Aug 28, 2020 $4.99N/A (N/A)0 .. 20,000NAN%00:00 (00:00)RainbowStudioRainbowStudio
304 Our Lovely Escape Sep 30, 2019 $9.99N/A (N/A)0 .. 20,000NAN%00:00 (00:00)Reine WorksTop Hat Studios Inc
305 SIMULACRA Oct 26, 2017 $2.24N/A (N/A)100,000 .. 200,0000%00:00 (00:00)Kaigan Games OÜKaigan Games OÜ, Another Indie
306 魔法考核冒险 Aug 25, 2020 $1.99N/A (N/A)0 .. 20,000NAN%00:00 (00:00)阿柒不爱日期阿柒不爱日期
307 The Manse on Soracca Oct 12, 2019 $4.99N/A (N/A)0 .. 20,000NAN%00:00 (00:00)MoonMuse Entertainment StudioMoonMuse Entertainment Studio
308 Beekyr Reloaded Nov 14, 2017 $9.99N/A (N/A)0 .. 20,000NAN%00:00 (00:00)KaleidoGamesKaleidoGames
309 4 Civilizations Aug 28, 2020 $7.99N/A (N/A)0 .. 20,000NAN%00:00 (00:00)Tomas DaugelaTomas Daugela
310 Nanairo Reincarnation Sep 27, 2019 $29.99N/A (N/A)0 .. 20,000NAN%00:00 (00:00)Silky's Plus Wasabi, Silky’s Plus AlphaSekai Project
311 Winter Wolves Classic Games Collection Oct 25, 2017 $4.99N/A (N/A)0 .. 20,000NAN%00:00 (00:00)Winter WolvesWinter Wolves
312 ドトコイ Aug 25, 2020 $4.99N/A (N/A)0 .. 20,000NAN%00:00 (00:00)黒城ろこ黒城ろこ
313 Alive 2 Survive: Tales from the Zombie Apocalypse Oct 10, 2019 $4.99N/A (N/A)0 .. 20,000NAN%00:00 (00:00)JamopolisJamopolis
314 家有大貓 Nekojishi Nov 12, 2017 FreeN/A (N/A)100,000 .. 200,0000%00:00 (00:00)Studio Klondike, Team NekojishiOrange Juice Dog
315 Wait! Life is beautiful! Aug 27, 2020 $9.99N/A (N/A)0 .. 20,000NAN%00:00 (00:00)[DRAMATIC MUSIC PLAYS]GameNet
316 Encased: A Sci-Fi Post-Apocalyptic RPG Sep 26, 2019 $29.99N/A (N/A)20,000 .. 50,0000%00:00 (00:00)Dark Crystal GamesBlack Tower Entertainment
317 Debris Oct 23, 2017 $9.99N/A (N/A)0 .. 20,0000%00:00 (00:00)Moonray StudiosMoonray Studios
318 Sense - 不祥的预感: A Cyberpunk Ghost Story Aug 25, 2020 $19.99N/A (N/A)0 .. 20,0000%00:00 (00:00)SuzakuTop Hat Studios Inc
319 Court of Ashes Oct 10, 2019 $9.99N/A (N/A)0 .. 20,000NAN%00:00 (00:00)Cratel StudiosCratel Studios
320 Our End of the World Nov 2, 2017 $9.99N/A (N/A)100,000 .. 200,0000%00:00 (00:00)橘子班, 大好网NVLMaker
321 Tell Me Why Aug 27, 2020 $29.99N/A (N/A)20,000 .. 50,0000%00:00 (00:00)DONTNOD EntertainmentXbox Game Studios
322 OMNIMUS Sep 25, 2019 $1.99N/A (N/A)0 .. 20,000NAN%00:00 (00:00)Angry gamesAngry games
323 How to Fool a Liar King Oct 20, 2017 $14.99N/A (N/A)0 .. 20,0000%00:00 (00:00)ROSEVERTEROSEVERTE
324 Trivia Quiz: All about everything! Aug 3, 2018 $1.34N/A (N/A)0 .. 20,000NAN%00:00 (00:00)DuCats Games StudioDuCats Games Studio
325 Agarest: Generations of War Feb 4, 2014 $14.99N/A (N/A)100,000 .. 200,0000%00:00 (00:00)Idea FactoryGhostlight LTD
326 深海:即刻抉择 Mar 5, 2020 $5.99N/A (N/A)0 .. 20,000NAN%00:00 (00:00)舞刀弄影, 舒尔佳INDIECN
327 Treasure Hunter Claire Jul 19, 2018 $19.99N/A (N/A)20,000 .. 50,0000%00:00 (00:00)AcerolaKagura Games
328 Area-X Jun 16, 2013 $24.99N/A (N/A)0 .. 20,000NAN%00:00 (00:00)Zeiva IncZeiva Inc
329 Roman's Christmas / 罗曼圣诞探案集 Feb 19, 2020 $10.99N/A (N/A)50,000 .. 100,000NAN%00:00 (00:00)apoto5Yogurt game, Milk Bottle Studio
330 Anicon - Animal Complex - Sheep's Path Aug 3, 2018 $7.99N/A (N/A)0 .. 20,000NAN%00:00 (00:00)Zeiva IncZeiva Inc
331 Loren The Amazon Princess Jan 15, 2014 $19.99N/A (N/A)50,000 .. 100,0000%00:00 (00:00)Winter WolvesWinter Wolves
332 Mar 3, 2020 N/AN/A (N/A)0 .. 20,000NAN%00:00 (00:00)Dexter Studios
333 Mary Skelter: Nightmares Jul 19, 2018 $24.99N/A (N/A)0 .. 20,0000%00:00 (00:00)Idea FactoryGhostlight LTD
334 Super Crystal Hunter Feb 17, 2020 $1.79N/A (N/A)0 .. 20,000NAN%00:00 (00:00)Netherware EntertainmentNetherware Entertainment
335 Welcome To... Chichester 2 - Part I : The Spy Of Chichester And The Eager Tourist Guide HD Edition Aug 3, 2018 FreeN/A (N/A)0 .. 20,000NAN%00:00 (00:00)Triority Interactive NovelsTriority Interactive Novels
336 Once Upon an Electric Dream Feb 28, 2020 $2.99N/A (N/A)0 .. 20,000NAN%00:00 (00:00)Snowhaven StudiosSnowhaven Studios
337 A Rite from the Stars Jul 18, 2018 $14.99N/A (N/A)0 .. 20,000NAN%00:00 (00:00)Risin' Goat, Flying Beast LabsPhoenix Online Publishing
338 Survive In Russia Feb 17, 2020 $5.99N/A (N/A)0 .. 20,000NAN%00:00 (00:00)Alexander SablinAlexander Sablin
339 Hazmat Hijinks Aug 1, 2018 $9.99N/A (N/A)0 .. 20,000NAN%00:00 (00:00)Tod PowersNational Spork LLC
340 Hero must die. again Feb 26, 2020 $25.99N/A (N/A)0 .. 20,000NAN%00:00 (00:00)Pyramid, G-modeDegica
341 Prank Masters ~ Otome Visual Novel Aug 16, 2018 $7.99N/A (N/A)0 .. 20,000NAN%00:00 (00:00)Lockvia StudiosLockvia Studios
342 Bionic Heart 2 Apr 1, 2013 $14.99N/A (N/A)20,000 .. 50,0000%00:00 (00:00)Winter WolvesWinter Wolves
343 Senren*Banka Feb 14, 2020 $34.99N/A (N/A)50,000 .. 100,0000%00:00 (00:00)YuzusoftHIKARI FIELD, NekoNyan Ltd.
344 Helping Hand Jul 26, 2018 $8.99N/A (N/A)0 .. 20,000NAN%00:00 (00:00)HubblegumHubblegum
345 Nicole Oct 17, 2013 $18.99N/A (N/A)0 .. 20,0000%00:00 (00:00)Winter WolvesWinter Wolves
346 驱灵 Feb 25, 2020 $2.99N/A (N/A)0 .. 20,000NAN%00:00 (00:00)FXHFXH
347 Small Sister Aug 15, 2018 $1.99N/A (N/A)0 .. 20,000NAN%00:00 (00:00)Proximity GamesProximity Games
348 VenusBlood FRONTIER International Feb 7, 2020 $39.99N/A (N/A)20,000 .. 50,000NAN%00:00 (00:00)Ninetail, DualtailJAST USA, Kagura Games (Chinese Localization)
349 Flowers -Le volume sur ete- Jul 26, 2018 $19.99N/A (N/A)0 .. 20,000NAN%00:00 (00:00)Innocent GreyJAST USA
350 Hate Plus Aug 19, 2013 $9.99N/A (N/A)50,000 .. 100,0000%00:00 (00:00)Love Conquers All GamesLove Conquers All Games
351 Les 4 Alice: Lorange Journey Aug 13, 2018 N/AN/A (N/A)0 .. 20,000NAN%00:00 (00:00)
352 Lamia Must Die Feb 17, 2014 FreeN/A (N/A)20,000 .. 50,0000%00:00 (00:00)Tuomo LaineTuomo Laine
353 Yes, Your Grace Mar 6, 2020 $19.99N/A (N/A)100,000 .. 200,0000%00:00 (00:00)Brave At NightNo More Robots
354 Postmortem: One Must Die (Extended Cut) Aug 15, 2013 $2.99N/A (N/A)20,000 .. 50,0000%00:00 (00:00)Unbound CreationsUnbound Creations
355 MONEY LOVES SILENCE Feb 24, 2020 $3.99N/A (N/A)0 .. 20,000NAN%00:00 (00:00)Vasiliy SadovyiVasiliy Sadovyi
356 OMG Zombies! Feb 13, 2014 $4.99N/A (N/A)200,000 .. 500,0000%00:00 (00:00)Laughing Jackal LTDGhostlight LTD
357 HumanBloodSandwich Mar 6, 2020 N/AN/A (N/A)0 .. 20,000NAN%00:00 (00:00)XIAODONG ZHANGXIAODONG ZHANG
358 Non-Linear Text Quests Jul 24, 2018 FreeN/A (N/A)0 .. 20,000NAN%00:00 (00:00)NLB projectNLB project
359 First Contact Feb 21, 2020 $6.99N/A (N/A)0 .. 20,000NAN%00:00 (00:00)Haguy EisEis Interactive
360 Intelligence Trader Aug 3, 2018 $9.99N/A (N/A)0 .. 20,000NAN%00:00 (00:00)DreambakersDreambakers
361 Roommates Feb 12, 2014 $24.99N/A (N/A)0 .. 20,0000%00:00 (00:00)Winter WolvesWinter Wolves
362 Jul 19, 2018 $14.99N/A (N/A)20,000 .. 50,0000%00:00 (00:00)Nuclear Tales
363 Soul Gambler Aug 1, 2013 $2.99N/A (N/A)100,000 .. 200,0000%00:00 (00:00)Ilex GamesGamestorming
364 Death and Taxes Feb 20, 2020 FreeN/A (N/A)50,000 .. 100,0000%00:00 (00:00)Placeholder GameworksPlaceholder Gameworks
365 Welcome To... Chichester 2 - Part II : No Regrets For The Future Jun 23, 2020 $1.99N/A (N/A)0 .. 20,000NAN%00:00 (00:00)Triority Interactive NovelsTriority Interactive Novels
366 The LEGO Movie 2 Videogame Feb 26, 2019 $5.99N/A (N/A)20,000 .. 50,0000%00:00 (00:00)TT Games, Feral interactive (Mac)Warner Bros. Interactive Entertainment, Feral interactive (Mac)
367 Anima Gate of Memories Jun 2, 2016 $19.99N/A (N/A)20,000 .. 50,0000%00:00 (00:00)Anima ProjectBadLand Publishing
368 Reflections ~Dreams and Reality~ Mar 14, 2019 $4.99N/A (N/A)0 .. 20,000NAN%00:00 (00:00)Reine WorksTop Hat Studios Inc
369 The Away Team: Lost Exodus Jul 22, 2016 $8N/A (N/A)0 .. 20,0000%00:00 (00:00)Underflow StudiosCrackshell
370 The Innsmouth Case Jun 23, 2020 $12.49N/A (N/A)0 .. 20,000NAN%00:00 (00:00)RobotPumpkin GamesAssemble Entertainment
371 STEINS;GATE ELITE Feb 19, 2019 N/AN/A (N/A)0 .. 20,0000%00:00 (00:00)MAGES. Inc.Spike Chunsoft Co., Ltd.
372 The Dope Game May 30, 2016 $1.99N/A (N/A)0 .. 20,0000%00:00 (00:00)CoaguCo IndustriesCoaguCo Industries
373 Rogue Star Rescue Mar 8, 2019 $14.99N/A (N/A)0 .. 20,000NAN%00:00 (00:00)Chute AppsChute Apps
374 Johnny Mystery and The Halloween Killer Jun 22, 2020 $1.99N/A (N/A)0 .. 20,000NAN%00:00 (00:00)Ma Ma SoftwareMa Ma Software
375 By Moonlight Feb 19, 2019 FreeN/A (N/A)0 .. 20,000NAN%00:00 (00:00)SugarHypedSugarHyped
376 35MM May 27, 2016 $8.99N/A (N/A)200,000 .. 500,0000%00:00 (00:00)Носков СергейНосков Сергей
377 VoxFox Jun 18, 2020 $2.99N/A (N/A)0 .. 20,000NAN%00:00 (00:00)Piece Of VoxelPiece Of Voxel
378 Leanna's Slice of Life Mar 7, 2019 $14.99N/A (N/A)50,000 .. 100,0000%00:00 (00:00)AcerolaKagura Games
379 Nurse Love Addiction Jul 8, 2016 $15.99N/A (N/A)0 .. 20,000NAN%00:00 (00:00)KOGADO STUDIODegica
380 听见我的心 Listen to My Heart Jun 20, 2020 $5.99N/A (N/A)0 .. 20,000NAN%00:00 (00:00)成都乐上网络科技有限公司Nazar Studios
381 Slave RPG Mar 27, 2019 $9.99N/A (N/A)0 .. 20,000NAN%00:00 (00:00)Rising Sun InteractiveRising Sun Interactive
382 BUDDY May 27, 2016 $9.99N/A (N/A)0 .. 20,000NAN%00:00 (00:00)HoshkoHoshko
383 Palais de Reine Jun 17, 2020 $23.99N/A (N/A)0 .. 20,000NAN%00:00 (00:00)KOGADO STUDIODegica
384 Extreme Racing on Highway Mar 6, 2019 $1.99N/A (N/A)0 .. 20,000NAN%00:00 (00:00)A NostruA Nostru
385 MEMENTO Jul 7, 2016 $1.79N/A (N/A)0 .. 20,000NAN%00:00 (00:00)CreateLabAGM PLAYISM
386 汉武大帝传 Jun 19, 2020 $7.99N/A (N/A)0 .. 20,000NAN%00:00 (00:00)只做一款战棋游戏工作室只做一款战棋游戏工作室
387 Eldritch Academy Mar 21, 2019 $11.99N/A (N/A)0 .. 20,000NAN%00:00 (00:00)NightshadeNightshade
388 Flowers -Le volume sur printemps- Aug 17, 2016 $19.99N/A (N/A)20,000 .. 50,000NAN%00:00 (00:00)Innocent GreyJAST USA
389 Across the Grooves Jun 17, 2020 $12.99N/A (N/A)0 .. 20,000NAN%00:00 (00:00)Nova-boxNova-box
390 7th Sector Mar 5, 2019 $12.99N/A (N/A)50,000 .. 100,000NAN%00:00 (00:00)Носков СергейНосков Сергей
391 Anicon - Animal Complex - Cat's Path Jul 2, 2016 $7.99N/A (N/A)0 .. 20,000NAN%00:00 (00:00)Zeiva IncZeiva Inc
392 Clam Man 2: Open Mic Jun 19, 2020 FreeN/A (N/A)50,000 .. 100,000NAN%00:00 (00:00)marafrassTeam Clam
393 TOKYO CHRONOS Mar 19, 2019 $39.99N/A (N/A)0 .. 20,000NAN%00:00 (00:00)MyDearest Inc.Sekai Project
394 One Day in London Aug 10, 2016 $9.99N/A (N/A)0 .. 20,0000%00:00 (00:00)Owl StudioOwl Studio
395 雾之本境S Conspiracy Field: Fog Shadow Jun 25, 2020 $3.99N/A (N/A)0 .. 20,000NAN%00:00 (00:00)SP-timeSP-time
396 Blood Bond - Into the Shroud Feb 27, 2019 $24.99N/A (N/A)0 .. 20,000NAN%00:00 (00:00)W.R.K.S GamesW.R.K.S Games
397 Adabana Odd Tales Jun 18, 2020 $17.99N/A (N/A)0 .. 20,0000%00:00 (00:00)Liar-softANIPLEX.EXE
398 vApe Escape Mar 15, 2019 FreeN/A (N/A)20,000 .. 50,000NAN%00:00 (00:00)GamechuckGamechuck
399 Detective Hank and the Golden Sneeze Jul 29, 2016 $4.99N/A (N/A)0 .. 20,000NAN%00:00 (00:00)Obsessive Science GamesObsessive Science Games
400 No Umbrellas Allowed Jun 24, 2020 $19.99N/A (N/A)0 .. 20,000NAN%00:00 (00:00)Hoochoo Game StudiosHoochoo Game Studios
401 Dream Rose Feb 10, 2019 $4.99N/A (N/A)0 .. 20,000NAN%00:00 (00:00)SupremePsychoFlux Entertainment
402 Cherry Tree High Girls' Fight Jun 13, 2016 $12.99N/A (N/A)0 .. 20,0000%00:00 (00:00)773Sekai Project
403 ATRI -My Dear Moments- Jun 18, 2020 $20.99N/A (N/A)20,000 .. 50,0000%00:00 (00:00)Frontwing, 枕ANIPLEX.EXE
404 Project Downfall Mar 15, 2019 $15.99N/A (N/A)0 .. 20,000NAN%00:00 (00:00)MGP Studios, Solid9 StudioMGP Studios
405 Heirs And Graces Sep 2, 2016 $12.99N/A (N/A)0 .. 20,000NAN%00:00 (00:00)Winter WolvesWinter Wolves
406 The Falling Tower Jun 23, 2020 $0.99N/A (N/A)0 .. 20,000NAN%00:00 (00:00)CarotaaDream Night Studio
407 Tiny Snow Feb 27, 2019 $3.99N/A (N/A)20,000 .. 50,0000%00:00 (00:00)#workshopNVLMaker
408 シルヴァリオ ヴェンデッタ-Verse of Orpheus- Jun 3, 2016 $64.99N/A (N/A)0 .. 20,000NAN%00:00 (00:00)lightARES Inc.
409 Personality Dating Sim Jun 18, 2020 $1.99N/A (N/A)0 .. 20,000NAN%00:00 (00:00)Fickle SickleFickle Sickle
410 Workers & Resources: Soviet Republic Mar 15, 2019 $19.99N/A (N/A)200,000 .. 500,00033.33%00:01 (00:00)3Division3Division
411 Just Deserts Jul 25, 2016 $9.99N/A (N/A)0 .. 20,0000%00:00 (00:00)Vifth FloorSekai Project
412 White Day: A Labyrinth Named School Aug 22, 2017 $29.99N/A (N/A)20,000 .. 50,0000%00:00 (00:00)SONNORI CorpPQube Limited, SONNORI Corp
413 Milky Way Prince – The Vampire Star Aug 13, 2020 $7.49N/A (N/A)0 .. 20,000NAN%00:00 (00:00)Eyeguys, Lorenzo RedaelliSanta Ragione
414 Fit For a King Sep 5, 2019 $9.99N/A (N/A)0 .. 20,000NAN%00:00 (00:00)Brent Ellison, Tanya X. ShortKitfox Games
415 Sevgilim Olur musun ? Sep 25, 2017 FreeN/A (N/A)20,000 .. 50,0000%00:00 (00:00)Proximity GamesProximity Games
416 Missing Time Aug 19, 2020 $19.99N/A (N/A)0 .. 20,000NAN%00:00 (00:00)Fluttering AbyssFluttering Abyss
417 A Summer with the Shiba Inu Aug 23, 2019 $8.99N/A (N/A)0 .. 20,000NAN%00:00 (00:00)Quill Game StudiosQuill Game Studios
418 Otter of My Life Sep 4, 2019 FreeN/A (N/A)0 .. 20,000NAN%00:00 (00:00)LinkingPixelsLinkingPixels
419 Fight'N Rage Sep 19, 2017 $2.99N/A (N/A)100,000 .. 200,0000%00:00 (00:00)sebagamesdevsebagamesdev
420 August of August Aug 18, 2020 $0.99N/A (N/A)0 .. 20,000NAN%00:00 (00:00)Fireworks GarlandFireworks Garland
421 CARSTEROIDS Aug 23, 2019 $4.99N/A (N/A)20,000 .. 50,000NAN%00:00 (00:00)bkdove studiosbkdove studios
422 NEAR DEADline Aug 12, 2020 FreeN/A (N/A)0 .. 20,000NAN%00:00 (00:00)Dumb ****ing HorseScarecrow Arts
423 Unlucky Seven Aug 30, 2019 $10.99N/A (N/A)0 .. 20,000NAN%00:00 (00:00)Puzzling DreamUltimate Games S.A., Art Games Studio S.A.
424 Duck Season Sep 14, 2017 $19.99N/A (N/A)50,000 .. 100,0000%00:00 (00:00)Stress Level ZeroStress Level Zero
425 Arabel Aug 17, 2020 $4.99N/A (N/A)0 .. 20,000NAN%00:00 (00:00)Amaury DangréauAmaury Hyde
426 Dragon Slayer Sep 21, 2019 $4.99N/A (N/A)0 .. 20,000NAN%00:00 (00:00)Silver CloudSilver Cloud
427 The Hunting God Jul 28, 2017 $2.99N/A (N/A)0 .. 20,000NAN%00:00 (00:00)Tonguç BodurTonguç Bodur
428 灰烬行星与填鸭少女 Aug 8, 2020 $1.99N/A (N/A)0 .. 20,000NAN%00:00 (00:00)世界末日高考组Kiulija Project
429 Ashes of Oahu Aug 29, 2019 $19.99N/A (N/A)0 .. 20,000NAN%00:00 (00:00)WyrmbyteWyrmbyte
430 Duality of Doodles Aug 14, 2020 $12.99N/A (N/A)0 .. 20,000NAN%00:00 (00:00)ProgenitorWorksProgenitorWorks
431 Jake's Love Story Oct 5, 2017 $9.99N/A (N/A)0 .. 20,0000%00:00 (00:00)Mikołaj SpychałMikołaj Spychał
432 The Henry Stickmin Collection Aug 7, 2020 $14.99N/A (N/A)200,000 .. 500,00028.57%02:03 (01:22)PuffballsUnitedInnersloth
433 Norman's Great Illusion Aug 29, 2019 $2.99N/A (N/A)0 .. 20,000NAN%00:00 (00:00)Civil SavagesCivil Savages
434 Ne no Kami - The Two Princess Knights of Kyoto Part 2 Sep 7, 2017 $9.99N/A (N/A)0 .. 20,000NAN%00:00 (00:00)Kuro Irodoru YomijiSekai Project
435 MOMO.EXE VR Aug 14, 2020 $9.99N/A (N/A)0 .. 20,000NAN%00:00 (00:00)Dymchick1Dymchick1
436 AI: The Somnium Files Sep 17, 2019 $59.99N/A (N/A)50,000 .. 100,00016.67%07:27 (02:29)Spike Chunsoft Co., Ltd.Spike Chunsoft Co., Ltd.
437 HEADLINER Oct 3, 2017 $2.99N/A (N/A)50,000 .. 100,000NAN%00:00 (00:00)Unbound CreationsUnbound Creations
438 Super Nate Adventure Aug 21, 2020 $2.99N/A (N/A)0 .. 20,000NAN%00:00 (00:00)KupoapoKupoapo
439 Furry Shakespeare: Dashing Dinosaurs & Sexy Centaurs Aug 28, 2019 $9.99N/A (N/A)0 .. 20,000NAN%00:00 (00:00)Stegalosaurus Game DevelopmentStegalosaurus Game Development
440 XOXO Droplets Aug 31, 2017 FreeN/A (N/A)20,000 .. 50,0000%00:00 (00:00)GB Patch GamesGB Patch Games
441 CRYPTEX Aug 14, 2020 $7.99N/A (N/A)0 .. 20,000NAN%00:00 (00:00)KarayelKarayel
442 Loser Reborn Sep 13, 2019 $4.49N/A (N/A)0 .. 20,000NAN%00:00 (00:00)Sounding Stone / 老奉毊Sounding Stone / 老奉毊
443 Mari and the Black Tower Oct 3, 2017 $1.99N/A (N/A)0 .. 20,000NAN%00:00 (00:00)Joshua KeithJoshua Keith
444 Escaping Hell Aug 20, 2020 $5.99N/A (N/A)0 .. 20,000NAN%00:00 (00:00)Sarah WerumSarah Werum
445 Summer Meetings Aug 28, 2019 $14.99N/A (N/A)0 .. 20,000NAN%00:00 (00:00)Mikołaj SpychałMikołaj Spychał
446 Gurobu Aug 14, 2020 $1.99N/A (N/A)0 .. 20,000NAN%00:00 (00:00)Aiaz MarxAiaz Marx
447 Sydney Hunter and the Curse of the Mayan Sep 11, 2019 $9.99N/A (N/A)0 .. 20,000NAN%00:00 (00:00)CollectorVision GamesCollectorVision Games
448 Saku Saku: Love Blooms with the Cherry Blossoms Oct 2, 2017 $19.99N/A (N/A)50,000 .. 100,0000%00:00 (00:00)PALETTESekai Project
449 ANNOYING ball game Aug 20, 2020 FreeN/A (N/A)0 .. 20,000NAN%00:00 (00:00)MoronicbodyMB Studios
450 The Castle Aug 25, 2019 $5.99N/A (N/A)0 .. 20,000NAN%00:00 (00:00)Ishtar Games Inc.Ishtar Games Inc.
451 Morph Girl Aug 30, 2017 $3.99N/A (N/A)0 .. 20,0000%00:00 (00:00)JaydebJaydeb
452 For the People Aug 13, 2020 $16.99N/A (N/A)0 .. 20,000NAN%00:00 (00:00)Brezg Studio101XP
453 Blooming Nightshade Aug 19, 2019 FreeN/A (N/A)20,000 .. 50,000NAN%00:00 (00:00)NightshadeNightshade
454 Elisa: Seduce the Innkeeper Sep 25, 2017 $4.99N/A (N/A)0 .. 20,0000%00:00 (00:00)Neoclassic GamesNeoclassic Games
455 Lovingly Evil Aug 19, 2020 $12.99N/A (N/A)0 .. 20,0000%00:00 (00:00)Lizard Hazard GamesGreen Man Gaming Publishing
456 First Day Aug 23, 2019 $14.99N/A (N/A)0 .. 20,000NAN%00:00 (00:00)BadWolf GamesBadWolf Games
457 BATYA Jan 27, 2020 $0.89N/A (N/A)0 .. 20,000NAN%00:00 (00:00)OKONNAYA RAMAOKONNAYA RAMA
458 Good Pizza, Great Pizza - Cooking Simulator Game Jun 5, 2018 $14.99N/A (N/A)0 .. 20,000NAN%00:00 (00:00)TapBlazeTapBlaze
459 Cinders Jun 20, 2012 $19.99N/A (N/A)50,000 .. 100,0000%00:00 (00:00)MoaCubeMoaCube
460 Soul Reaper Feb 4, 2020 $19.99N/A (N/A)0 .. 20,000NAN%00:00 (00:00)Power Level Studios Inc.Power Level Studios Inc.
461 Bastard May 14, 2018 $8.99N/A (N/A)20,000 .. 50,000NAN%00:00 (00:00)Aterdux EntertainmentAterdux Entertainment
462 Always Remember Me Apr 17, 2011 $17.99N/A (N/A)20,000 .. 50,0000%00:00 (00:00)Winter WolvesWinter Wolves
463 Retrace Jan 20, 2020 $19.99N/A (N/A)0 .. 20,000NAN%00:00 (00:00)Spider Lily Studios LLCSpider Lily Studios LLC
464 The Wilting Amaranth Jun 4, 2018 $4.99N/A (N/A)0 .. 20,000NAN%00:00 (00:00)Reine WorksTop Hat Studios Inc
465 The Game We All Have To Play Feb 3, 2020 $2.99N/A (N/A)0 .. 20,000NAN%00:00 (00:00)ZubkoZubko
466 Stop! Dictator Kim Jong-un May 10, 2018 $2.99N/A (N/A)0 .. 20,000NAN%00:00 (00:00)zoocroszoocros
467 X-note Mar 8, 2011 $14.99N/A (N/A)20,000 .. 50,0000%00:00 (00:00)Zeiva IncZeiva Inc
468 Revenant March Jan 17, 2020 $4.99N/A (N/A)0 .. 20,000NAN%00:00 (00:00)Strandline GamesStrandline Games
469 喵可莉的兔玩偶 - Nyakori's Rabbit Doll Feb 2, 2020 $2.99N/A (N/A)0 .. 20,0000%00:00 (00:00)赤瞳大白猫赤瞳大白猫
470 STEINS;GATE 0 May 8, 2018 $34.99N/A (N/A)50,000 .. 100,0007.14%18:36 (06:12)MAGES. Inc.Spike Chunsoft Co., Ltd.
471 Little One - A Visual Novel Jan 14, 2020 $4.99N/A (N/A)0 .. 20,000NAN%00:00 (00:00)Dim Sum OneGiiku Games
472 Catmaze May 24, 2018 $9.99N/A (N/A)20,000 .. 50,0000%00:00 (00:00)Redblack SpadeRedblack Spade
473 JORRY Feb 2, 2020 $9.99N/A (N/A)0 .. 20,000NAN%00:00 (00:00)KorozifKorozif
474 Bleeding Sun Jul 14, 2018 $3.99N/A (N/A)0 .. 20,000NAN%00:00 (00:00)Jaime Paz LopesJaime Paz Lopes
475 some some convenience store Jan 14, 2020 $14.99N/A (N/A)20,000 .. 50,0000%00:00 (00:00)TALESSHOP Co., Ltd.TALESSHOP Co., Ltd.
476 Fhtagn! - Tales of the Creeping Madness May 22, 2018 $9.99N/A (N/A)0 .. 20,0000%00:00 (00:00)Design ImpsDesign Imps
477 Notch - The Innocent LunA: Eclipsed SinnerS Feb 18, 2012 $9.99N/A (N/A)50,000 .. 100,0000%00:00 (00:00)Angels Blue Digital Entertainment, DigitalEZDigitalEZ
478 Arranged Jan 31, 2020 $0.99N/A (N/A)0 .. 20,000NAN%00:00 (00:00)Kabuk GamesKabuk Games
479 Shadow Council: The Puppeteers Jun 21, 2018 $14.99N/A (N/A)0 .. 20,000NAN%00:00 (00:00)Tap by TapTap by Tap
480 Monster Loves You! Mar 18, 2013 $9.99N/A (N/A)200,000 .. 500,0000%00:00 (00:00)Radial Games Corp, Dejobaan Games, LLCRadial Games Corp
481 Princess Maker Go!Go! Princess Dec 23, 2019 $8.99N/A (N/A)0 .. 20,000NAN%00:00 (00:00)CFK Co., Ltd.CFK Co., Ltd.
482 Strangers of the Power 2 May 21, 2018 $3.99N/A (N/A)50,000 .. 100,0000%00:00 (00:00)Tuomo LaineTuomo's games
483 Yakuza Kiss Jun 19, 2018 $9.99N/A (N/A)0 .. 20,000NAN%00:00 (00:00)Pink PotionPink Potion
484 Virtually Real Life Feb 7, 2020 $9.99N/A (N/A)0 .. 20,000NAN%00:00 (00:00)Freedom SoftwareFreedom Software
485 SwordBounce May 19, 2018 $4.99N/A (N/A)0 .. 20,0000%00:00 (00:00)GogglesKittyGogglesKitty
486 Train of Afterlife Jan 13, 2012 $9.99N/A (N/A)0 .. 20,0000%00:00 (00:00)Zeiva IncZeiva Inc
487 A Light in the Dark Jun 15, 2018 $14.99N/A (N/A)50,000 .. 100,000NAN%00:00 (00:00)CreSpirit, Storia, NarratorSekai Project
488 Swiper: Prologue Feb 6, 2020 FreeN/A (N/A)0 .. 20,000NAN%00:00 (00:00)Swiper teamSwiper team
489 Ctrl CV May 18, 2018 $0.99N/A (N/A)50,000 .. 100,0000%00:00 (00:00)ZPinkPsychoFlux Entertainment
490 Spirited Heart Deluxe Sep 1, 2011 $19.99N/A (N/A)0 .. 20,0000%00:00 (00:00)Winter WolvesWinter Wolves
491 Nobunaga's Shadow Jun 11, 2018 $1.99N/A (N/A)0 .. 20,000NAN%00:00 (00:00)Ultaan GamesUltaan Games
492 Moe Era Feb 4, 2020 FreeN/A (N/A)100,000 .. 200,000NAN%00:00 (00:00)Comfy CompanyComfy Company
493 Nepenthe May 17, 2018 $4.99N/A (N/A)0 .. 20,0000%00:00 (00:00)Yitzyours truly
494 Kidnapped Girl Jun 15, 2020 FreeN/A (N/A)100,000 .. 200,000NAN%00:00 (00:00)TroyHolmanTroyHolman
495 Furries & Scalies & Bears OH MY! Jan 16, 2019 $8.49N/A (N/A)0 .. 20,000NAN%00:00 (00:00)Stefan Klaus, Stegalosaurus Game DevelopmentStefan Klaus, Stegalosaurus Game Development
496 Hustle Cat Mar 16, 2016 $19.99N/A (N/A)50,000 .. 100,0000%00:00 (00:00)Date NightoDate Nighto
497 Skin Witch May 29, 2020 $7.99N/A (N/A)0 .. 20,000NAN%00:00 (00:00)Blackwood SpecterBlackwood Specter
498 9-nine-:Episode 1 Jan 31, 2019 $19.99N/A (N/A)0 .. 20,0000%00:00 (00:00)PALETTESekai Project
499 Summer Memories Jun 14, 2020 $19.99N/A (N/A)20,000 .. 50,000NAN%00:00 (00:00)Dojin OtomeKagura Games
500 Kairos'Light May 29, 2020 FreeN/A (N/A)0 .. 20,000NAN%00:00 (00:00)Manon Carrier, Jean-marc Vanbalberghe, Arnaud VanbalbergheAssoc. Let's Develop Change
501 Welcome To... Chichester 1/Redux : The Spy Of America And The Long Vacation Jan 29, 2019 FreeN/A (N/A)0 .. 20,000NAN%00:00 (00:00)Triority Interactive NovelsTriority Interactive Novels
502 Starlight Vega Apr 14, 2016 $9.99N/A (N/A)0 .. 20,000NAN%00:00 (00:00)Razzart VisualRazzart Visual
503 Griftlands Jun 14, 2020 $19.99N/A (N/A)100,000 .. 200,0000%00:00 (00:00)Klei EntertainmentKlei Entertainment
504 Battle for Gaming Jan 9, 2019 $6.99N/A (N/A)0 .. 20,000NAN%00:00 (00:00)Free Time DevFree Time Dev
505 Tales of Ancient Nights Jan 29, 2019 $1.99N/A (N/A)0 .. 20,000NAN%00:00 (00:00)Demir LeylekDemir Leylek
506 Persona 4 Golden Jun 13, 2020 $19.99N/A (N/A)500,000 .. 1,000,00013.04%01:16 (01:13)ATLUSSEGA
507 她2 : 我还想再见到你 Her2 : I Want To See You Again Feb 15, 2019 $3.99N/A (N/A)0 .. 20,000NAN%00:00 (00:00)橘喵喵橘喵喵
508 Robo's World: The Zarnok Fortress Mar 7, 2016 $9.99N/A (N/A)20,000 .. 50,0000%00:00 (00:00)Bluish-Green Productions, Throw Away GamesBluish-Green Games Inc.
509 Sweet F. Cake May 28, 2020 $9.95N/A (N/A)0 .. 20,0000%00:00 (00:00)TexicBear in the Night Studio
510 枕边少女 MOE Hypnotist - share dreams with you Jan 27, 2019 $6.99N/A (N/A)0 .. 20,000NAN%00:00 (00:00)橘子班PeriScope Game
511 Eldritch University Jun 11, 2020 $5.99N/A (N/A)0 .. 20,000NAN%00:00 (00:00)NightshadeNightshade
512 Steam Prison Feb 14, 2019 $34.99N/A (N/A)0 .. 20,0000%00:00 (00:00)HunexMangaGamer
513 A Little Lily Princess May 19, 2016 $14.99N/A (N/A)0 .. 20,0000%00:00 (00:00)HanabiraHanako Games
514 Resolutiion May 28, 2020 $19.99N/A (N/A)0 .. 20,000NAN%00:00 (00:00)Monolith of MindsDeck13, Mayflower Entertainment, WhisperGames
515 CHAOS;CHILD Jan 22, 2019 $34.99N/A (N/A)0 .. 20,0000%00:00 (00:00)MAGES. Inc.Spike Chunsoft Co., Ltd.
516 Whateverland: Prologue Jun 10, 2020 FreeN/A (N/A)0 .. 20,000NAN%00:00 (00:00)Caligari GamesCaligari Games, WhisperGames
517 Blind Date Feb 13, 2019 $2.99N/A (N/A)0 .. 20,000NAN%00:00 (00:00)Joshua Wilson, MentalpopJoshua Wilson
518 侠客风云传(Tale of Wuxia) Apr 28, 2016 $16.99N/A (N/A)200,000 .. 500,0000%00:00 (00:00)Heluo StudioFHYX(凤凰游戏)
519 Breaking Lockdown Jun 17, 2020 $4.99N/A (N/A)0 .. 20,000NAN%00:00 (00:00)Lappi SoftLappi Soft
520 Welcome To... Chichester OVN 3 : The Mysterious Affair At The Violet Hotel Jun 7, 2020 $1.99N/A (N/A)0 .. 20,000NAN%00:00 (00:00)Triority Interactive NovelsTriority Interactive Novels
521 Dream Enders RPG Feb 8, 2019 FreeN/A (N/A)0 .. 20,000NAN%00:00 (00:00)C.A.WitheyC.A.Withey
522 Root Double -Before Crime * After Days- Xtend Edition Apr 27, 2016 $34.99N/A (N/A)20,000 .. 50,0000%00:00 (00:00)Yeti, RegistaSekai Project
523 Metal Gunner Jun 16, 2020 $11.99N/A (N/A)0 .. 20,000NAN%00:00 (00:00)KIMYS STUDIOSKIMYS STUDIOS
524 How to Sing to Open Your Heart Jan 17, 2019 $14.99N/A (N/A)0 .. 20,000NAN%00:00 (00:00)ROSEVERTEROSEVERTE
525 Solstice Mar 23, 2016 $19.99N/A (N/A)50,000 .. 100,0000%00:00 (00:00)MoaCubeMoaCube
526 The Light Remake Jun 4, 2020 $4.99N/A (N/A)0 .. 20,0000%00:00 (00:00)Носков СергейНосков Сергей
527 The Island: Into The Mist Jan 31, 2019 $9.99N/A (N/A)20,000 .. 50,000NAN%00:00 (00:00)SUPER WAVE StudioBADA Games
528 C14 Dating Apr 27, 2016 $19.99N/A (N/A)0 .. 20,000NAN%00:00 (00:00)Winter WolvesWinter Wolves
529 Dab on Darkness! Jun 16, 2020 $0.99N/A (N/A)0 .. 20,000NAN%00:00 (00:00)Sigyaad TeamSigyaad Team
530 S.A.I.A.'s Awakening: A Robothorium Visual Novel Jan 17, 2019 N/AN/A (N/A)0 .. 20,0000%00:00 (00:00)Quentin LapeyreGoblinz Studio, Whisper Games
531 Way of the Samurai 3 Mar 23, 2016 $19.99N/A (N/A)50,000 .. 100,0000%00:00 (00:00)ACQUIRE Corp.Ghostlight LTD
532 The Deed II May 29, 2020 $1.99N/A (N/A)0 .. 20,000NAN%00:00 (00:00)Pilgrim AdventuresGrabTheGames
533 Dealer's Life Jan 31, 2019 $9.99N/A (N/A)0 .. 20,0000%00:00 (00:00)Abyte EntertainmentAbyte Entertainment
534 Symphonic Rain Jun 14, 2017 $19.99N/A (N/A)0 .. 20,000NAN%00:00 (00:00)KOGADO STUDIODegica
535 Corridors of their memories Aug 3, 2020 $2.99N/A (N/A)0 .. 20,000NAN%00:00 (00:00)AlkinoyAlkinoy
536 Dry Drowning Aug 2, 2019 $19.99N/A (N/A)20,000 .. 50,000NAN%00:00 (00:00)Studio V, VLGVLG Publishing, WhisperGames
537 Tell a Demon Jul 21, 2017 $12.99N/A (N/A)0 .. 20,000NAN%00:00 (00:00)Sun Labyrinth LLCSun Labyrinth LLC
538 Cupcake: an Apartment Adventure Aug 6, 2020 $2.99N/A (N/A)0 .. 20,000NAN%00:00 (00:00)RachelGamer Can't Focus
539 Detective Girl of the Steam City Jul 18, 2019 $14.99N/A (N/A)50,000 .. 100,000NAN%00:00 (00:00)ClymeniaKagura Games
540 Sentience: The Android's Tale Jun 2, 2017 $0.99N/A (N/A)20,000 .. 50,0000%00:00 (00:00)Pilgrim AdventuresGrabTheGames
541 The Outcast Lovers Jul 31, 2020 FreeN/A (N/A)0 .. 20,000NAN%00:00 (00:00)Chard, De Fault, Richard CampbellFar Few Giants
542 Xander the Monster Morpher: Universe Breaker Aug 2, 2019 $4.99N/A (N/A)0 .. 20,000NAN%00:00 (00:00)KaratkuroKaratkuro
543 Club Soccer Director 2021 Aug 6, 2020 FreeN/A (N/A)0 .. 20,000NAN%00:00 (00:00)Go Play Games LtdGo Play Games Ltd
544 Tidal Tribe Jul 18, 2019 $14.99N/A (N/A)0 .. 20,000NAN%00:00 (00:00)PowPitPowPit
545 Lamp Head Jun 1, 2017 $1.99N/A (N/A)20,000 .. 50,0000%00:00 (00:00)OriplayCristian Manolachi, Atomic Fabrik
546 Rewrite - DYH Jul 31, 2020 $9.99N/A (N/A)0 .. 20,000NAN%00:00 (00:00)DYHWinCode
547 Tina: Swordswoman of the Scarlet Prison Aug 1, 2019 $14.99N/A (N/A)0 .. 20,000NAN%00:00 (00:00)shinachiku-castellaKagura Games
548 Naev Jul 17, 2017 FreeN/A (N/A)50,000 .. 100,0000%00:00 (00:00)Naev TeamNaev Team
549 Wait! Life is Beautiful! Prologue Aug 6, 2020 FreeN/A (N/A)0 .. 20,000NAN%00:00 (00:00)[DRAMATIC MUSIC PLAYS]GameNet
550 Fateline(命运线) Aug 16, 2019 $1.99N/A (N/A)0 .. 20,000NAN%00:00 (00:00)Gemini Stars Games, 匿蝶网络Gemini Stars Games
551 Super Army of Tentacles 3: The Search for Army of Tentacles 2 May 30, 2017 $4.94N/A (N/A)50,000 .. 100,0000%00:00 (00:00)Stegalosaurus Game DevelopmentStegalosaurus Game Development
552 Aeon on Mosaic: Anemone 时间碎片:奇迹 Jul 30, 2020 $1.99N/A (N/A)0 .. 20,000NAN%00:00 (00:00)Fantasia StudioFantasia Studio
553 Heroes of Shaola Aug 1, 2019 $4.99N/A (N/A)0 .. 20,000NAN%00:00 (00:00)Smiling Dragon RPG StudiosSmiling Dragon RPG Studios, Opium Pulses Entertainment
554 Sorcerer's Dream Jul 14, 2017 $4.99N/A (N/A)20,000 .. 50,000NAN%00:00 (00:00)Arai Koh Create OfficeYOX-Project
555 Eyes of The Mirror Aug 6, 2020 $0.99N/A (N/A)0 .. 20,000NAN%00:00 (00:00)Fatih MertFatih Mert
556 9-nine-:Episode 2 Aug 16, 2019 $19.99N/A (N/A)0 .. 20,0000%00:00 (00:00)PALETTESekai Project
557 Bai Qu: Hundreds of Melodies Jul 27, 2017 $9.99N/A (N/A)20,000 .. 50,0000%00:00 (00:00)Magenta FactoryMagenta Factory
558 Flowers -Le volume sur automne- Jul 30, 2020 $19.99N/A (N/A)0 .. 20,000NAN%00:00 (00:00)Innocent GreyJAST USA
559 Towertale Jul 30, 2019 $9.99N/A (N/A)0 .. 20,000NAN%00:00 (00:00)MiSou GamesMiSou Games
560 Crimson Gray Jul 14, 2017 $9.99N/A (N/A)0 .. 20,0000%00:00 (00:00)Sierra LeeSierra Lee
561 Cruel Bands Career 残酷乐队生涯 Aug 5, 2020 $3.99N/A (N/A)0 .. 20,000NAN%00:00 (00:00)heran&99indienova
562 Escape from Fortress Lugohm Aug 15, 2019 $9.99N/A (N/A)0 .. 20,000NAN%00:00 (00:00)baron sengiaKagura Games
563 WAGAMAMA HIGH SPEC Jul 26, 2017 $39.99N/A (N/A)0 .. 20,0000%00:00 (00:00)madosoftSekai Project
564 The Last Survey Aug 7, 2020 $4.99N/A (N/A)0 .. 20,000NAN%00:00 (00:00)Nicholas O'BrienNicholas O'Brien
565 ChatAid Jul 30, 2019 N/AN/A (N/A)0 .. 20,000NAN%00:00 (00:00)Miriel
566 symeCu8e Jul 4, 2017 $8.99N/A (N/A)0 .. 20,0000%00:00 (00:00)forever8pusforever8pus
567 Approaching Infinity Aug 5, 2020 $10.99N/A (N/A)20,000 .. 50,000NAN%00:00 (00:00)IBOLOGY LLCIBOLOGY LLC
568 The Song of Saya Aug 12, 2019 $14.99N/A (N/A)50,000 .. 100,0000%00:00 (00:00)NitroplusJAST USA, Kagura Games (Chinese Localization)
569 GAG Aug 7, 2020 $1.99N/A (N/A)0 .. 20,000NAN%00:00 (00:00)Joshua RolandJoshua Roland
570 在这个世界的尽头,你与我被遗忘的传说 Jul 29, 2019 $1.99N/A (N/A)0 .. 20,000NAN%00:00 (00:00)虚无制作组(Nilgamer)虚无制作组(Nilgamer)
571 Princess Maker 3: Fairy Tales Come True Jun 27, 2017 N/AN/A (N/A)20,000 .. 50,000NAN%00:00 (00:00)CFK Co., Ltd.CFK Co., Ltd.
572 Rogue Randy Aug 4, 2020 $0.99N/A (N/A)20,000 .. 50,000NAN%00:00 (00:00)Jacob SingerJacob Singer
573 告死天使之言-Death angel Aug 10, 2019 $0.49N/A (N/A)20,000 .. 50,000NAN%00:00 (00:00)我妻寒十冷笑黑妖
574 Blind Men Jul 25, 2017 $3.99N/A (N/A)0 .. 20,0000%00:00 (00:00)Man-Eater GamesMan-Eater Games
575 Don't Look Aug 7, 2020 $4.99N/A (N/A)0 .. 20,000NAN%00:00 (00:00)Diego AguilarDiego Aguilar
576 The Witch's Love Diary Jul 26, 2019 $29.99N/A (N/A)0 .. 20,0000%00:00 (00:00)QoobrandSekai Project
577 The Agony Jun 14, 2017 $0.99N/A (N/A)50,000 .. 100,000NAN%00:00 (00:00)KishMish GamesKishMish Games
578 告死天使的审判-Death Angel Trial Aug 3, 2020 $3.19N/A (N/A)0 .. 20,000NAN%00:00 (00:00)我妻寒十冷笑黑妖
579 The Letter - Horror Visual Novel Jul 24, 2017 $19.99N/A (N/A)50,000 .. 100,0000%00:00 (00:00)Yangyang MobileYangyang Mobile
580 Kozue's Strange Journey Aug 6, 2020 $14.99N/A (N/A)0 .. 20,000NAN%00:00 (00:00)AsakiyumemishiKagura Games
581 Border Officer Jul 19, 2019 $9.99N/A (N/A)0 .. 20,000NAN%00:00 (00:00)Cheesecake DevCheesecake Dev
582 Pax Ruthenia Nov 28, 2019 $4.99N/A (N/A)0 .. 20,000NAN%00:00 (00:00)VenezemVenezem
583 Doodle Date Apr 19, 2018 $1.99N/A (N/A)20,000 .. 50,000NAN%00:00 (00:00)Nicholas LivesNicholas Lives
584 VITAL Dec 13, 2019 $4.99N/A (N/A)0 .. 20,000NAN%00:00 (00:00)Frozen HelmFrozen Helm
585 Ostalgie: The Berlin Wall Mar 25, 2018 $5.99N/A (N/A)100,000 .. 200,0000%00:00 (00:00)KremlingamesKremlingames
586 To Be Headed Or Not To Be Nov 21, 2019 $7.99N/A (N/A)0 .. 20,000NAN%00:00 (00:00)Fruits of Yggdrasil StudioFruits of Yggdrasil Studio
587 Who Am I: The Tale of Dorothy Apr 16, 2018 N/AN/A (N/A)20,000 .. 50,000NAN%00:00 (00:00)Onaemo StudioOnaemo Studio
588 Flower Shop: Summer In Fairbrook Jan 28, 2010 $14.99N/A (N/A)0 .. 20,0000%00:00 (00:00)Winter WolvesWinter Wolves
589 SuperEpic: The Entertainment War Dec 12, 2019 $17.99N/A (N/A)0 .. 20,000NAN%00:00 (00:00)UndercodersNumskull Games
590 ROMBIE Mar 23, 2018 $8.99N/A (N/A)0 .. 20,000NAN%00:00 (00:00)Phr00t's SoftwarePhr00t's Software
591 Kyle is Famous Nov 18, 2019 FreeN/A (N/A)50,000 .. 100,000NAN%00:00 (00:00)John SzymanskiJohn Szymanski
592 ARK -the lost fairytale- Apr 13, 2018 $2.99N/A (N/A)100,000 .. 200,000NAN%00:00 (00:00)Narrator, STORIANarrator
593 DIVINATION Dec 12, 2019 $1.49N/A (N/A)0 .. 20,000NAN%00:00 (00:00)MojikenMojiken
594 The Adventurous Four Mar 22, 2018 $3.99N/A (N/A)0 .. 20,0000%00:00 (00:00)NLB projectNLB project
595 Air Marty Nov 17, 2019 $4.99N/A (N/A)0 .. 20,000NAN%00:00 (00:00)Myles JorgensenDipster Productions LLC
596 BlueberryNOVA Apr 5, 2018 $2.99N/A (N/A)0 .. 20,000NAN%00:00 (00:00)Nova B12, OtakuNovelNova B12
597 Hammerfight Sep 19, 2009 FreeN/A (N/A)200,000 .. 500,0000%00:00 (00:00)Konstantin KoshutinKranX Productions
598 Kelipot / 形骸骑士 Dec 11, 2019 $13.99N/A (N/A)0 .. 20,000NAN%00:00 (00:00)Unlimited Fly GamesUnlimited Fly Games, Gamera Game
599 Inexplicable Geeks: Dawn of Just Us May 3, 2018 $6.89N/A (N/A)0 .. 20,0000%00:00 (00:00)Stegalosaurus Game DevelopmentStegalosaurus Game Development
600 Blacksad: Under the Skin Nov 14, 2019 $39.99N/A (N/A)100,000 .. 200,0000%00:00 (00:00)Pendulo Studios, YS InteractiveMicroids
601 Paper Shakespeare: To Date Or Not To Date? Apr 4, 2018 $8.99N/A (N/A)0 .. 20,0000%00:00 (00:00)Stegalosaurus Game DevelopmentStegalosaurus Game Development
602 Bionic Heart Jul 7, 2009 $9.99N/A (N/A)0 .. 20,0000%00:00 (00:00)Winter WolvesWinter Wolves
603 WarriOrb: Prologue Dec 11, 2019 FreeN/A (N/A)20,000 .. 50,000NAN%00:00 (00:00)Not YetNot Yet, Maple Whispering Limited
604 Little Marisa's Disaster Journey Apr 28, 2018 $0.99N/A (N/A)0 .. 20,000NAN%00:00 (00:00)Dark Sky EmpireDark Sky Empire
605 Holy Knight Luviria Nov 14, 2019 $19.99N/A (N/A)0 .. 20,000NAN%00:00 (00:00)Daijyobi InstituteKagura Games
606 Fatal Twelve Mar 30, 2018 $19.99N/A (N/A)0 .. 20,0000%00:00 (00:00)aiueoKompanySekai Project
607 Lunnye Devitsy Jul 1, 2009 $4.99N/A (N/A)20,000 .. 50,0000%00:00 (00:00)Boss BaddieBoss Baddie
608 EarthNight Dec 3, 2019 $14.99N/A (N/A)0 .. 20,000NAN%00:00 (00:00)CleaversoftCleaversoft
609 NEKO-NIN exHeart 2 Apr 27, 2018 $9.99N/A (N/A)0 .. 20,0000%00:00 (00:00)WhirlpoolSekai Project
610 eversion Jun 7, 2010 $4.99N/A (N/A)20,000 .. 50,0000%00:00 (00:00)Zaratustra ProductionsZaratustra Productions
611 K37-D Dec 22, 2019 $4.99N/A (N/A)0 .. 20,000NAN%00:00 (00:00)ShadowBlade GamesShadowBlade Games
612 Luminescence Mar 30, 2018 $0.99N/A (N/A)0 .. 20,000NAN%00:00 (00:00)Genetic StudioGenetic Studio
613 Aztaka May 7, 2009 $4.99N/A (N/A)0 .. 20,0000%00:00 (00:00)Citeremis Inc.Citeremis Inc.
614 Familia May 1, 2020 $4.99N/A (N/A)100,000 .. 200,000NAN%00:00 (00:00)Joseph AbrahamJoseph Abraham
615 Freakshow:Anniversary Apr 24, 2018 FreeN/A (N/A)0 .. 20,0000%00:00 (00:00)KevinTheWolfyKevinTheWolfy
616 Baldr Sky Dec 20, 2019 $49.99N/A (N/A)0 .. 20,000NAN%00:00 (00:00)GIGASekai Project
617 Tactics & Strategy Master:Joan of Arc Apr 9, 2018 $4.99N/A (N/A)0 .. 20,000NAN%00:00 (00:00)Gemini Stars GamesGemini Stars Games
618 Heileen 1: Sail Away Oct 16, 2008 $5.99N/A (N/A)0 .. 20,0000%00:00 (00:00)Winter WolvesWinter Wolves
619 H-Rescue Nov 29, 2019 $1.39N/A (N/A)20,000 .. 50,0000%00:00 (00:00)G-BloodG-Blood
620 Final Battle Apr 20, 2018 $6.99N/A (N/A)0 .. 20,000NAN%00:00 (00:00)Cherry BloomCherry Bloom
621 Date Warp May 22, 2010 $9.99N/A (N/A)0 .. 20,0000%00:00 (00:00)Hanako GamesHanako Games
622 Potata: fairy flower Dec 17, 2019 $8.99N/A (N/A)0 .. 20,000NAN%00:00 (00:00)Potata CompanyPotata Company
623 KOEWOTAYORINI / 声之寄托 Mar 26, 2018 FreeN/A (N/A)100,000 .. 200,0000%00:00 (00:00)あみそ組Pujia8 Studio, Gamera Game
624 We Know the Devil Feb 15, 2016 $7.99N/A (N/A)0 .. 20,000NAN%00:00 (00:00)Pillow Fight, Worst Girls GamesPillow Fight
625 YOU and ME and HER: A Love Story May 25, 2020 $29.99N/A (N/A)0 .. 20,000NAN%00:00 (00:00)NitroplusJAST USA
626 河洛群俠傳 (Ho Tu Lo Shu : The Books of Dragon) Nov 14, 2018 $17.99N/A (N/A)200,000 .. 500,0000%00:00 (00:00)Heluo Studio香港商河洛互動娛樂股份有限公司, 方块游戏
627 Angels That Kill - The Final Cut Nov 20, 2015 $4.99N/A (N/A)0 .. 20,0000%00:00 (00:00)Rising Sun InteractiveRising Sun Interactive
628 a new life. May 15, 2020 $2.99N/A (N/A)0 .. 20,0000%00:00 (00:00)Angela HeAngela He
629 Clinically Dead Dec 6, 2018 $14.99N/A (N/A)0 .. 20,0000%00:00 (00:00)Mogila GamesUltimate Games S.A.
630 5089: The Action RPG Feb 3, 2016 $7.99N/A (N/A)20,000 .. 50,0000%00:00 (00:00)Phr00t's SoftwarePhr00t's Software
631 风信楼 May 22, 2020 $11.99N/A (N/A)50,000 .. 100,000NAN%00:00 (00:00)Pingfang GamesPingfang Games
632 The Room Three Nov 13, 2018 $5.99N/A (N/A)200,000 .. 500,0006.67%01:34 (00:31)Fireproof GamesFireproof Games
633 Highschool Romance Nov 18, 2015 $12.99N/A (N/A)20,000 .. 50,0000%00:00 (00:00)Dharker StudioDharker Studios Ltd
634 Phantom Path May 15, 2020 $9.99N/A (N/A)20,000 .. 50,000NAN%00:00 (00:00)KEYREALKEYREAL
635 Qasir al-Wasat: International Edition Jan 19, 2016 $4.99N/A (N/A)0 .. 20,0000%00:00 (00:00)Aduge StudioZueira Digital
636 View From Below May 22, 2020 $6.99N/A (N/A)0 .. 20,000NAN%00:00 (00:00)Jack AstralJack Astral
637 Quantum Retribution Nov 8, 2018 $4.99N/A (N/A)0 .. 20,000NAN%00:00 (00:00)Paradox BagParadox Bag
638 G-senjou no Maou - The Devil on G-String Nov 5, 2015 $19.99N/A (N/A)0 .. 20,0000%00:00 (00:00)AKABEiSOFT2Sekai Project
639 RaiOhGar: Asuka and the King of Steel May 14, 2020 $14.99N/A (N/A)0 .. 20,000NAN%00:00 (00:00)GapTaxKagura Games
640 Lightning Angel Litona Liliche 섬광천사 리토나 리리셰 Dec 4, 2018 $11.99N/A (N/A)0 .. 20,000NAN%00:00 (00:00)TALESSHOP Co., Ltd.TALESSHOP Co., Ltd.
641 Section Six May 19, 2020 $3.99N/A (N/A)0 .. 20,000NAN%00:00 (00:00)Lepus GamesLepus Games
642 Kunoichi Botan Jan 3, 2019 $14.99N/A (N/A)0 .. 20,000NAN%00:00 (00:00)EnokippuKagura Games
643 Mugen Souls Oct 22, 2015 $19.99N/A (N/A)50,000 .. 100,0000%00:00 (00:00)Idea FactoryGhostlight LTD
644 My Wet Leto Comic May 9, 2020 $7.99N/A (N/A)0 .. 20,000NAN%00:00 (00:00)Fusen StudioFusen Studio
645 Kaori After Story Dec 3, 2018 $9.99N/A (N/A)0 .. 20,000NAN%00:00 (00:00)PixelFade IncPixelFade Inc
646 A Wild Catgirl Appears! Jan 5, 2016 $2.99N/A (N/A)0 .. 20,0000%00:00 (00:00)NewWestGamesNewWestGames
647 Out of Shapes May 19, 2020 $8.99N/A (N/A)0 .. 20,000NAN%00:00 (00:00)One Percent Games LLCOne Percent Games LLC
648 Mirt. Tales of the Cold Land Jan 1, 2019 $1.99N/A (N/A)0 .. 20,000NAN%00:00 (00:00)Emanon StudiosEmanon Studios
649 Real Life Plus Ver. Kaname Komatsuzaki May 8, 2020 $12.99N/A (N/A)0 .. 20,000NAN%00:00 (00:00)Fan-naSekai Project
650 Hir Corruption Nov 28, 2018 N/AN/A (N/A)0 .. 20,000NAN%00:00 (00:00)
651 Pamali: Indonesian Folklore Horror Dec 27, 2018 $4.99N/A (N/A)20,000 .. 50,000NAN%00:00 (00:00)StoryTale StudiosStoryTale Studios, Maple Whispering Limited
652 Karaski: What Goes Up... Mar 2, 2016 $11.99N/A (N/A)0 .. 20,0000%00:00 (00:00)Unbound CreationsUnbound Creations
653 KingSim May 28, 2020 $9.99N/A (N/A)0 .. 20,000NAN%00:00 (00:00)Fuzzy Pixel Game StudioFuzzy Pixel Game Studio
654 Protocol Nov 20, 2018 $19.99N/A (N/A)0 .. 20,000NAN%00:00 (00:00)Fair Games StudioFair Games Studio
655 Turnover Dec 15, 2015 $2.99N/A (N/A)0 .. 20,000NAN%00:00 (00:00)Long Division LLCLong Division LLC
656 The Confession May 18, 2020 $1.99N/A (N/A)0 .. 20,000NAN%00:00 (00:00)Randumb StudiosRandumb Studios
657 Adventures of Dragon Dec 20, 2018 $4.99N/A (N/A)0 .. 20,0000%00:00 (00:00)Tuomo LaineTuomo's games
658 Lucy -The Eternity She Wished For- Feb 28, 2016 $9.99N/A (N/A)100,000 .. 200,0000%00:00 (00:00)Modern Visual Arts Laboratory, SEO INSEOKModern Visual Arts Laboratory
659 Intemporel May 28, 2020 $7.99N/A (N/A)0 .. 20,000NAN%00:00 (00:00)Flying ButterFlying Butter
660 Anime And Your Life Nov 16, 2018 $6.99N/A (N/A)0 .. 20,000NAN%00:00 (00:00)BadWolf GamesBadWolf Games
661 City of Chains Dec 8, 2015 $8.99N/A (N/A)200,000 .. 500,0000%00:00 (00:00)Astronomic GamesNew Reality Games
662 東方催狐譚 ~ Servants of Harvest Wish May 16, 2020 FreeN/A (N/A)20,000 .. 50,000NAN%00:00 (00:00)Team DreamcatcherTeam Dreamcatcher
663 The.Thend.End Dec 19, 2018 $0.99N/A (N/A)0 .. 20,000NAN%00:00 (00:00)Give Me MoneyGive Me Money
664 Drizzlepath: Genie Feb 22, 2016 $5.99N/A (N/A)0 .. 20,0000%00:00 (00:00)Tonguç BodurTonguç Bodur
665 Depanneur Nocturne May 26, 2020 $4.99N/A (N/A)0 .. 20,000NAN%00:00 (00:00)KO_OPKO_OP
666 Phantom Thief Celianna Nov 15, 2018 $12.99N/A (N/A)20,000 .. 50,0000%00:00 (00:00)AcerolaKagura Games
667 BAD END Nov 25, 2015 $2.99N/A (N/A)20,000 .. 50,0000%00:00 (00:00)Arai Koh Create OfficeYOX-Project
668 Nazi Labs May 15, 2020 $2.99N/A (N/A)20,000 .. 50,000NAN%00:00 (00:00)Sinned GamesSinned Games
669 KóterGame Dec 11, 2018 FreeN/A (N/A)0 .. 20,000NAN%00:00 (00:00)DzsemboriDzsembori
670 Chook & Sosig: Walk the Plank Jun 17, 2019 $9.99N/A (N/A)0 .. 20,000NAN%00:00 (00:00)TookiPalookiArmor Games Studios
671 Locked Jul 22, 2020 $1.59N/A (N/A)0 .. 20,000NAN%00:00 (00:00)Redmoon GamesMV Games
672 Monsters of Little Haven Jul 9, 2019 $4.99N/A (N/A)0 .. 20,000NAN%00:00 (00:00)Nikita Kaf ProductionsNikita Kaf Publishing
673 AKAI NOROI Jul 24, 2020 $12.99N/A (N/A)0 .. 20,000NAN%00:00 (00:00)Aza Game StudioAza Game Studio
674 The Spy Who Shrunk Me Jun 14, 2019 $9.99N/A (N/A)0 .. 20,000NAN%00:00 (00:00)CatlandCatland
675 Crisis in the Kremlin Mar 20, 2017 $4.99N/A (N/A)100,000 .. 200,0000%00:00 (00:00)KremlingamesKremlingames
676 Dr. Atominus Jul 22, 2020 $3.99N/A (N/A)0 .. 20,000NAN%00:00 (00:00)Pikku-aPikku-a
677 Super Web Kittens: Act I Jun 26, 2019 $9.99N/A (N/A)20,000 .. 50,000NAN%00:00 (00:00)Kuno HoshikoKuno Hoshiko
678 The Falconers: Moonlight Apr 18, 2017 $9.99N/A (N/A)0 .. 20,000NAN%00:00 (00:00)Bionic PenguinSekai Project
679 Love Spell: Written In The Stars Jul 24, 2020 $18.99N/A (N/A)20,000 .. 50,000NAN%00:00 (00:00)Great Gretuski Studios LLCGreat Gretuski Studios LLC
680 Courage for a Kiss Jun 13, 2019 $19.99N/A (N/A)0 .. 20,000NAN%00:00 (00:00)Mikołaj SpychałMikołaj Spychał
681 Trajectory Mar 10, 2017 $8.99N/A (N/A)0 .. 20,000NAN%00:00 (00:00)Sky Trail LtdSky Trail Ltd
682 Ourea Jul 21, 2020 $7.99N/A (N/A)0 .. 20,000NAN%00:00 (00:00)Rewrite GamesRewrite Games
683 And All Would Cry Beware! Jun 24, 2019 $9.99N/A (N/A)0 .. 20,000NAN%00:00 (00:00)Renegade Sector GamesRenegade Sector Games
684 </reality> Apr 18, 2017 $11.99N/A (N/A)0 .. 20,000NAN%00:00 (00:00)Fancy Fish GamesFancy Fish Games
685 神王之王者之心 Jul 24, 2020 N/AN/A (N/A)0 .. 20,000NAN%00:00 (00:00)浙江宣逸网络科技有限公司, 浙江宣逸网络科技有限公司浙江宣逸网络科技有限公司
686 失落的地下城 Lost Dungeon Jul 18, 2019 $2.99N/A (N/A)0 .. 20,000NAN%00:00 (00:00)泽渔制作组泽渔制作组
687 Bad Dream: Coma Mar 9, 2017 $8.99N/A (N/A)100,000 .. 200,0000%00:00 (00:00)Desert FoxUltimate Games S.A.
688 Shivering Hearts Jul 21, 2020 $7.99N/A (N/A)0 .. 20,000NAN%00:00 (00:00)MischaMischa
689 VICCP Jun 20, 2019 $1.99N/A (N/A)0 .. 20,000NAN%00:00 (00:00)quasardeepquasardeep
690 Cinderella Phenomenon - Otome/Visual Novel Apr 5, 2017 FreeN/A (N/A)200,000 .. 500,0000%00:00 (00:00)DicesukiDicesuki
691 The Curse of Kubel Jul 23, 2020 $14.99N/A (N/A)0 .. 20,000NAN%00:00 (00:00)Yasagure KitsuenjyoKagura Games
692 局外人 L'Etranger Jul 17, 2019 FreeN/A (N/A)20,000 .. 50,000NAN%00:00 (00:00)Class-2Class-2
693 Magical Stock Princess Jul 21, 2020 $2.99N/A (N/A)0 .. 20,000NAN%00:00 (00:00)IFCATSIFCATS
694 LuGame: Lunchtime Games Club! Jun 20, 2019 $7.99N/A (N/A)0 .. 20,000NAN%00:00 (00:00)H. Hochkins, owl.Urban Meadows
695 My Dangerous Life Jul 23, 2020 $12.99N/A (N/A)0 .. 20,000NAN%00:00 (00:00)HituzigumoGiiku Games
696 Round Rooms Jul 16, 2019 $0.99N/A (N/A)0 .. 20,000NAN%00:00 (00:00)The PsychiartistThe Psychiartist
697 Embers of Mirrim May 23, 2017 $14.99N/A (N/A)0 .. 20,000NAN%00:00 (00:00)Creative Bytes StudiosCreative Bytes Studios
698 The Lost Art of Innkeeping Jul 29, 2020 $4.99N/A (N/A)0 .. 20,000NAN%00:00 (00:00)SeaPhoenixSeaPhoenix
699 Boy VS Genius 贫穷少年与校园名人的生死对决 Jun 20, 2019 $0.99N/A (N/A)0 .. 20,000NAN%00:00 (00:00)黒い天使, XNZONEXNZONE
700 Elisa: the Innkeeper Mar 28, 2017 $4.99N/A (N/A)0 .. 20,0000%00:00 (00:00)Neoclassic GamesNeoclassic Games
701 Against The Moon: Prologue Jul 23, 2020 FreeN/A (N/A)20,000 .. 50,000NAN%00:00 (00:00)Code HereticBlack Tower
702 reD:起始的旋转之音(The beginning of the Melody) Jul 13, 2019 $0.99N/A (N/A)0 .. 20,000NAN%00:00 (00:00)MikaCoinMikaCoin
703 Confess My Love May 27, 2017 FreeN/A (N/A)200,000 .. 500,0000%00:00 (00:00)LR StudioLR Studio
704 My Silly Life Jul 29, 2020 $4.99N/A (N/A)0 .. 20,000NAN%00:00 (00:00)storkyproduct.storkyproduct.
705 Faith of Fate Jun 19, 2019 $1.79N/A (N/A)0 .. 20,000NAN%00:00 (00:00)Guillermo Flores Morales (Ris Δos)Guillermo Flores Morales (Ris Δos)
706 Majotori Mar 28, 2017 $5.99N/A (N/A)20,000 .. 50,00050%03:18 (01:39)MajorariattoMajorariatto
707 Blankspace Jul 23, 2020 $9.99N/A (N/A)0 .. 20,000NAN%00:00 (00:00)NoBreadStudioNoBreadStudio
708 She Sees Red - Interactive Movie Jul 11, 2019 $7.99N/A (N/A)50,000 .. 100,0000%00:00 (00:00)RhinotalesRhinotales
709 Knights of Galiveth May 1, 2017 N/AN/A (N/A)0 .. 20,0000%00:00 (00:00)LunarCore Games, ChalludymLunarCore Games
710 Each Sale I Blow a Balloon Jul 29, 2020 $3.19N/A (N/A)0 .. 20,000NAN%00:00 (00:00)Bmc StudioBmc Studio
711 Beyond a Total Loss Jun 18, 2019 $9.99N/A (N/A)0 .. 20,000NAN%00:00 (00:00)PseudobugPseudobug
712 Booth: A Dystopian Adventure Jul 22, 2020 $7.99N/A (N/A)0 .. 20,000NAN%00:00 (00:00)Guanpeng ChenGuanpeng Chen
713 Clea / 克莉 Jul 10, 2019 $10.99N/A (N/A)0 .. 20,000NAN%00:00 (00:00)InvertMouseInvertMouse
714 Blossoms Bloom Brightest Apr 28, 2017 FreeN/A (N/A)20,000 .. 50,0000%00:00 (00:00)Reine WorksReine Works
715 Synergia Jul 27, 2020 $11.99N/A (N/A)0 .. 20,0000%00:00 (00:00)Radi ArtTop Hat Studios Inc
716 The Majesty of Colors Remastered Feb 28, 2018 $1.99N/A (N/A)0 .. 20,000NAN%00:00 (00:00)Future Proof GamesFuture Proof Games
717 Internet Cafe Simulator Oct 25, 2019 $9.99N/A (N/A)200,000 .. 500,0000%00:00 (00:00)Cheesecake DevCheesecake Dev
718 Saint Emiliana Sep 16, 2020 $19.99N/A (N/A)0 .. 20,000NAN%00:00 (00:00)WhiteMoorKagura Games
719 蜀山幻剑录 Sword of Shushan Sep 24, 2020 $11.99N/A (N/A)0 .. 20,000NAN%00:00 (00:00)星罗云布Nebula Game Studio星罗云布Nebula Game Studio
720 KOEWOTAYORINI SP / 声之寄托SP Feb 13, 2018 $1.99N/A (N/A)0 .. 20,000NAN%00:00 (00:00)あみそ組Pujia8 Studio, Gamera Game
721 LIZ: Before the Plague Oct 31, 2019 $8.99N/A (N/A)0 .. 20,000NAN%00:00 (00:00)Twin Wolves StudioTwin Wolves Studio
722 川建国同志想要连任/Comrade Trump's Re-election Sep 10, 2020 $2.99N/A (N/A)20,000 .. 50,000NAN%00:00 (00:00)YEARS七彩绘色游戏
723 Hollow Steps Feb 28, 2018 $1.59N/A (N/A)0 .. 20,0000%00:00 (00:00)QuickSaveQuickSave
724 Detective Kobayashi - A Visual Novel Oct 24, 2019 $12.99N/A (N/A)0 .. 20,000NAN%00:00 (00:00)GenuineGiiku Games
725 Morth Sep 16, 2020 $4.99N/A (N/A)100,000 .. 200,000NAN%00:00 (00:00)TinkerTylerTinkerTyler
726 Gothic Murder: Adventure That Changes Destiny Sep 23, 2020 $11.99N/A (N/A)0 .. 20,000NAN%00:00 (00:00)orangeorange
727 The Little Slime Feb 11, 2018 $6.99N/A (N/A)0 .. 20,000NAN%00:00 (00:00)SudoTiltSudoTilt
728 The Donnerwald Experiment Oct 31, 2019 $10.99N/A (N/A)0 .. 20,000NAN%00:00 (00:00)Wegenbartho GamesWegenbartho Games
729 Dark Cards Sep 10, 2020 $9.99N/A (N/A)0 .. 20,000NAN%00:00 (00:00)Pixel Cattle GamesPixel Cattle Games
730 CHRONO TRIGGER Feb 27, 2018 $7.49N/A (N/A)200,000 .. 500,0000%00:00 (00:00)Square EnixSquare Enix
731 Lakeview Valley Oct 22, 2019 $14.99N/A (N/A)20,000 .. 50,0000%00:00 (00:00)Roope TamminenRoope Tamminen
732 Cube Worlds Survival Sep 16, 2020 $1.99N/A (N/A)0 .. 20,000NAN%00:00 (00:00)PaulArtPaulArt
733 Project LUX Feb 2, 2018 $24.99N/A (N/A)0 .. 20,0000%00:00 (00:00)Spicy TailsSekai Project
734 XOXO Blood Droplets Oct 30, 2019 FreeN/A (N/A)20,000 .. 50,000NAN%00:00 (00:00)GB Patch GamesGB Patch Games
735 Tokyo Re:Connect Prologue Sep 9, 2020 FreeN/A (N/A)0 .. 20,000NAN%00:00 (00:00)KONEKOKONEKO
736 Song of Memories (Complete Scenario) Feb 27, 2018 $39.99N/A (N/A)0 .. 20,000NAN%00:00 (00:00)Future Tech Lab Co.,Ltd.Future Tech Lab Co.,Ltd.
737 Princess Maker ~Faery Tales Come True~ (HD Remake) Dec 23, 2019 $23.99N/A (N/A)0 .. 20,000NAN%00:00 (00:00)CFK Co., Ltd.CFK Co., Ltd.
738 Our Past Sep 15, 2020 $8.99N/A (N/A)0 .. 20,000NAN%00:00 (00:00)Patrik Sehnoutek, Patrik EliašP&P Games Studio
739 World Process Sep 8, 2020 $6.99N/A (N/A)0 .. 20,000NAN%00:00 (00:00)ZetaoIndieFactory
740 Meteor 60 Seconds! Feb 26, 2018 FreeN/A (N/A)200,000 .. 500,0000%00:00 (00:00)AvocavoAvocavo
741 TinyCrack Sep 15, 2020 $7.99N/A (N/A)0 .. 20,000NAN%00:00 (00:00)TeamTinyCrackTeamTinyCrack
742 Twin Blue Moons Mar 7, 2018 $4.99N/A (N/A)0 .. 20,000NAN%00:00 (00:00)Arcus PlumeArcus Plume
743 Grimm's Hollow Oct 30, 2019 FreeN/A (N/A)200,000 .. 500,000NAN%00:00 (00:00)ghosthunterghosthunter
744 Tex Murphy: The Pandora Directive Jul 31, 1996 $9.99N/A (N/A)20,000 .. 50,0000%00:00 (00:00)Access SoftwareNightdive Studios
745 Fallen ~Makina and the City of Ruins~ Feb 23, 2018 $14.99N/A (N/A)100,000 .. 200,0000%00:00 (00:00)Another StoryKagura Games
746 Feels Nov 13, 2019 $3.99N/A (N/A)0 .. 20,000NAN%00:00 (00:00)Copper Heart FactoryCopper Heart Factory
747 好久不见 - Long Time No See Sep 14, 2020 $4.99N/A (N/A)0 .. 20,000NAN%00:00 (00:00)SleepwalkStudio, 橙光游戏橙光游戏
748 TOMORROW DON'T COME - Puzzling Depression Mar 5, 2018 $2.99N/A (N/A)0 .. 20,000NAN%00:00 (00:00)Peace & Love GamesPeace & Love Games
749 Cave of Illusions Oct 30, 2019 $5.99N/A (N/A)0 .. 20,000NAN%00:00 (00:00)Vidas SalavejusVidas Salavejus
750 Minimum Wage: Influence The Election Sep 24, 2020 $7.25N/A (N/A)0 .. 20,000NAN%00:00 (00:00)Matt BarthMatt Barth
751 Mike Dies Feb 23, 2018 $14.99N/A (N/A)0 .. 20,000NAN%00:00 (00:00)Psydra Games LLCPsydra Games LLC
752 沉默沼泽 Sep 13, 2020 $3.99N/A (N/A)0 .. 20,000NAN%00:00 (00:00)橙光游戏橙光游戏
753 Lizard Mar 4, 2018 $9.99N/A (N/A)0 .. 20,000NAN%00:00 (00:00)Brad SmithBrad Smith
754 Adventure or Normality? Oct 29, 2019 N/AN/A (N/A)0 .. 20,000NAN%00:00 (00:00)
755 Living in the Ending World Sep 22, 2020 $5.39N/A (N/A)0 .. 20,000NAN%00:00 (00:00)illuCalabSekai Project
756 OASE - Other Age Second Encounter Sep 16, 2010 $19.99N/A (N/A)0 .. 20,000NAN%00:00 (00:00)Zeiva IncZeiva Inc
757 Tren0 Feb 22, 2018 $2.99N/A (N/A)50,000 .. 100,0000%00:00 (00:00)BubbleINDIECN
758 Hope; or How We Survived Nov 1, 2019 $5.99N/A (N/A)0 .. 20,000NAN%00:00 (00:00)Sepia CowboysSepia Cowboys
759 Divine Legacy Sep 11, 2020 $11.99N/A (N/A)0 .. 20,000NAN%00:00 (00:00)GodarkhaosGodarkhaos
760 Creature Romances: Kokonoe Kokoro Mar 2, 2018 $2.99N/A (N/A)0 .. 20,0000%00:00 (00:00)NostalgiaSekai Project
761 The Lost Cave of the Ozarks Oct 28, 2019 $7.99N/A (N/A)0 .. 20,000NAN%00:00 (00:00)Rubber GardenRubber Garden
762 Exploaris: Vermis story Sep 22, 2020 $13.49N/A (N/A)0 .. 20,000NAN%00:00 (00:00)ViART GamesViArt Studio
763 Crimson Ranch Sep 24, 2020 $2.69N/A (N/A)0 .. 20,000NAN%00:00 (00:00)Aiaz MarxAiaz Marx
764 Border of her Heart Feb 14, 2018 $0.99N/A (N/A)0 .. 20,0000%00:00 (00:00)Tuomo LaineTuomo's games
765 The Room Syndrome Nov 1, 2019 FreeN/A (N/A)0 .. 20,000NAN%00:00 (00:00)Jesse CarradinePresentable Games
766 Love on Paper Sep 10, 2020 $10.99N/A (N/A)0 .. 20,000NAN%00:00 (00:00)Mikołaj SpychałMikołaj Spychał
767 Super Gear Quest May 5, 2020 $14.99N/A (N/A)0 .. 20,000NAN%00:00 (00:00)Blob GamesBlob Games
768 LoveChoice Sep 30, 2018 $1.99N/A (N/A)100,000 .. 200,0000%00:00 (00:00)Akaba StudioAkaba Studio
769 Artifact Adventure May 19, 2015 $1.39N/A (N/A)20,000 .. 50,0000%00:00 (00:00)bluffmanPLAYISM
770 Yumeutsutsu Re:After Apr 22, 2020 $39.99N/A (N/A)0 .. 20,000NAN%00:00 (00:00)KOGADO STUDIODegica
771 Headliner: NoviNews Oct 23, 2018 $13.99N/A (N/A)50,000 .. 100,000NAN%00:00 (00:00)Unbound CreationsUnbound Creations
772 Amnesia: Memories Aug 25, 2015 $9.99N/A (N/A)100,000 .. 200,0000%00:00 (00:00)Idea Factory, Design FactoryIdea Factory International
773 Cat in the Box May 1, 2020 $6.99N/A (N/A)0 .. 20,000NAN%00:00 (00:00)GustavPsychoFlux Entertainment
774 Friendly Fire Apr 21, 2020 FreeN/A (N/A)20,000 .. 50,000NAN%00:00 (00:00)The Cat Hive DevelopersThe Cat Hive Developers
775 Iwate Mountain Dance May 1, 2020 $11.99N/A (N/A)0 .. 20,000NAN%00:00 (00:00)Kirisame JumpKirisame Jump
776 Dark Deception Sep 26, 2018 FreeN/A (N/A)500,000 .. 1,000,0004.76%02:15 (01:07)Glowstick EntertainmentGlowstick Entertainment
777 Sunrider Academy Apr 15, 2015 $9.99N/A (N/A)50,000 .. 100,0000%00:00 (00:00)Love in SpaceSekai Project
778 Viviette Oct 18, 2018 $9.99N/A (N/A)0 .. 20,0000%00:00 (00:00)DYA GamesDYA Games
779 Shattered Hourglass Apr 29, 2020 $9.99N/A (N/A)0 .. 20,000NAN%00:00 (00:00)sawworm Gamessawworm Games
780 Lost in Vivo Nov 5, 2018 $11.99N/A (N/A)50,000 .. 100,0000%00:00 (00:00)KIRAKIRA
781 The Confines Of The Crown Apr 3, 2015 $19.99N/A (N/A)0 .. 20,0000%00:00 (00:00)Hanako GamesHanako Games
782 Demon Blast Apr 20, 2020 $14.99N/A (N/A)0 .. 20,000NAN%00:00 (00:00)Start WarpStart Warp
783 Fire Escape Apr 29, 2020 $9.99N/A (N/A)0 .. 20,000NAN%00:00 (00:00)iNK StoriesiNK Stories
784 Seed of Evil Nov 1, 2018 $12.99N/A (N/A)20,000 .. 50,000NAN%00:00 (00:00)HasoyuaKagura Games
785 Hyper Treasure - The Legend of Macaron Apr 17, 2020 $3.99N/A (N/A)0 .. 20,000NAN%00:00 (00:00)RusimituRusimitu
786 Her 她 Oct 16, 2018 $3.99N/A (N/A)0 .. 20,000NAN%00:00 (00:00)橘喵喵橘喵喵
787 Eternal Senia Jun 18, 2015 FreeN/A (N/A)500,000 .. 1,000,0000%00:00 (00:00)Sanctum GamesSanctum Games
788 Brave Alchemist Colette Apr 27, 2020 $24.99N/A (N/A)0 .. 20,000NAN%00:00 (00:00)AcerolaKagura Games
789 Physical Exorcism: Case 01 Oct 31, 2018 $1.49N/A (N/A)0 .. 20,000NAN%00:00 (00:00)Sounding Stone / 老奉毊, Meijin Zhu / 五月梅花落Sounding Stone / 老奉毊
790 My Sweet Confession May 8, 2020 $4.99N/A (N/A)0 .. 20,000NAN%00:00 (00:00)Snowhaven StudiosSnowhaven Studios
791 Gaokao.Love.100Days May 30, 2015 $9.99N/A (N/A)100,000 .. 200,0000%00:00 (00:00)高考恋爱委员会, 橘子班NVLMaker
792 What Makes Us Special Apr 27, 2020 $12.99N/A (N/A)0 .. 20,000NAN%00:00 (00:00)Mikołaj SpychałMikołaj Spychał
793 The Ditzy Demons Are in Love With Me Oct 26, 2018 $24.99N/A (N/A)20,000 .. 50,0000%00:00 (00:00)SMILESekai Project
794 DENIAL May 5, 2020 $14.99N/A (N/A)0 .. 20,000NAN%00:00 (00:00)Ofek Ben Shalom, Eldar Ben ShalomOfek Ben Shalom, Eldar Ben Shalom
795 Cloud Chasers - Journey of Hope Oct 15, 2018 $4.99N/A (N/A)0 .. 20,000NAN%00:00 (00:00)Blindflug Studios AGBlindflug Studios AG
796 The Fruit of Grisaia May 29, 2015 $39.99N/A (N/A)20,000 .. 50,0000%00:00 (00:00)FrontwingFrontwing USA
797 她3 : 复乐园之曦 Her3 : The Light of Paradise Regained Apr 24, 2020 $4.99N/A (N/A)0 .. 20,000NAN%00:00 (00:00)橘喵喵橘喵喵
798 Rainbow Cult Oct 25, 2018 $19.99N/A (N/A)0 .. 20,000NAN%00:00 (00:00)Death Hill GamesDeath Hill Games
799 Wild Island Quest Sep 4, 2015 $1.99N/A (N/A)50,000 .. 100,0000%00:00 (00:00)NLB projectNLB project
800 Midsummer Night May 5, 2020 $2.99N/A (N/A)0 .. 20,000NAN%00:00 (00:00)Everlasting FantasyEverlasting Fantasy
801 Candy Raid: The Factory Oct 1, 2018 $4.99N/A (N/A)0 .. 20,000NAN%00:00 (00:00)KR Game StudiosKR Game Studios
802 Hyperdimension Neptunia Re;Birth2: Sisters Generation May 29, 2015 $14.99N/A (N/A)100,000 .. 200,0000%00:00 (00:00)Idea Factory, Compile Heart, FelistellaIdea Factory, Idea Factory International
803 Birth ME Code Apr 22, 2020 $24.99N/A (N/A)0 .. 20,000NAN%00:00 (00:00)Miracle MoonMiracle Moon
804 Do Not Feed the Monkeys Oct 23, 2018 $11.99N/A (N/A)200,000 .. 500,0000%00:00 (00:00)Fictiorama Studios, BadLand Games Publishing S.L.Alawar Premium
Overview

Multiple Endings

Games with this tag: 804
Average userscore: N/A%
Average metascore: 74.51%
Average playtime: 02:58
Total copies owned: 87,996,000
Average price: $11.73
Help

Owners: Estimated number of people owning this game. The number might be way too small for new releases and sometimes way too big for games that had free weekend event recently. Read more on About page.

Playtime: Average hours played in total per person that have actually launched this game since March 2009. This time is calculated for the whole lifetime, not for the particular year.

Average score: Average users and metacritic score for all games with this score assigned.

Average playtime: Average lifetime playtime for all games where this data is available.

Games in this genre: Self-explaining - number of games with this tag. Only inculdes games with sales data available.

Total copies owned: Refers to total copies of games with this tag acquired by users for the lifetime. Includes copies sold, downloaded for free and given out.

This number might be too small for recently released games or too big for games that had a free weekend in the last couple of months.

Graphs

Login required.

Please register or log in to see this information.

Login required.

Please register or log in to see this information.